Darstellungsparameter: Aktuell verwendete Einstellungen:
Skalierung der Graphiken ... ?
xyx+y,   Skalierungsfaktor:      Skalierung: Modus: x, Faktor: 1
Darstellungszeitraum ... ?
Vom - - bis: - -   Zeitraum: 22.12.2014 - 27.12.2014
Min/Max/Avg-Anzeige ... ?
Zeige MMA aktuell
Zeige MMA Monat
Zeige MMA alles
Zeige --A aktuell
Zeige --A Monat
Zeige --A alles
Keine MMA-Anzeige
MMA:
Keine MMA-Graphiken
MMA-Basis: 22.12.2014 - 27.12.2014
Quicknavigation für Darstellung... ?
Tage:      1T, 2T, 3T, 5T -1T -2T -3T -5T +1T +2T +3T +5T
Wochen: 1W, 2W, 3W -1W -2W -3W +1W +2W +3W
Monate: 1M, 3M, 6M -1M -3M -6M +1M +3M +6M
Jahre:    1J, 3J, 5J, 10J -1J -3J -5J -10J +1J +3J +5J +10J
Nutze für die Darstellung ... ?
Originaldaten oder Mittelwerte auf ...
Stundenbasis Tagesbasis Wochenbasis
Monatsbasis Jahresbasis      Datenbasis: Original-Daten
Darstellen als:
Statistik (Auto) Statistik J:M      Darstellung:
Zur Graphik,    zurück zur Übersicht aller Sensoren.
 
Tabellarische Datenbersicht: ?
 
Sensor: Nr:Datum:Temp:Abs-Feuchte:Windchill:Wind:
Aussen-T/F 1 22-12-2014 00:00:00 7.6 C 6.93 g/m*3 4.61 C 17.7 km/h
2 22-12-2014 00:05:00 7.6 C 6.93 g/m*3 4.61 C 17.7 km/h
3 22-12-2014 00:10:00 7.6 C 6.93 g/m*3 4.61 C 17.7 km/h
4 22-12-2014 00:15:00 7.6 C 6.93 g/m*3 5.26 C 12.9 km/h
5 22-12-2014 00:20:00 7.6 C 6.93 g/m*3 5.26 C 12.9 km/h
6 22-12-2014 00:25:00 7.6 C 6.93 g/m*3 5.82 C 9.7 km/h
7 22-12-2014 00:30:00 7.6 C 6.93 g/m*3 5.26 C 12.9 km/h
8 22-12-2014 00:35:00 7.6 C 6.93 g/m*3 5.02 C 14.5 km/h
9 22-12-2014 00:40:00 7.6 C 6.93 g/m*3 4.81 C 16.1 km/h
10 22-12-2014 00:45:00 7.6 C 6.93 g/m*3 5.26 C 12.9 km/h
11 22-12-2014 00:50:00 7.6 C 6.93 g/m*3 5.82 C 9.7 km/h
12 22-12-2014 00:55:00 7.5 C 6.88 g/m*3 5.7 C 9.7 km/h
13 22-12-2014 01:00:00 7.5 C 6.88 g/m*3 4.48 C 17.7 km/h
14 22-12-2014 01:05:00 7.6 C 6.93 g/m*3 5.26 C 12.9 km/h
15 22-12-2014 01:10:00 7.6 C 6.93 g/m*3 4.81 C 16.1 km/h
16 22-12-2014 01:15:00 7.6 C 6.93 g/m*3 5.26 C 12.9 km/h
17 22-12-2014 01:20:00 7.6 C 6.93 g/m*3 3.94 C 24.1 km/h
18 22-12-2014 01:25:00 7.6 C 6.93 g/m*3 3.94 C 24.1 km/h
19 22-12-2014 01:30:00 7.6 C 6.93 g/m*3 4.81 C 16.1 km/h
20 22-12-2014 01:35:00 7.6 C 6.93 g/m*3 4.09 C 22.5 km/h
21 22-12-2014 01:40:00 7.6 C 6.93 g/m*3 5.02 C 14.5 km/h
22 22-12-2014 01:45:00 7.6 C 6.93 g/m*3 4.61 C 17.7 km/h
23 22-12-2014 01:50:00 7.6 C 6.93 g/m*3 4.42 C 19.3 km/h
24 22-12-2014 01:55:00 7.6 C 6.93 g/m*3 4.25 C 20.9 km/h
25 22-12-2014 02:00:00 7.6 C 6.93 g/m*3 4.25 C 20.9 km/h
Sensor: Nr:Datum:Temp:Abs-Feuchte:Windchill:Wind:
Aussen-T/F 26 22-12-2014 02:05:00 7.6 C 7.01 g/m*3 4.25 C 20.9 km/h
27 22-12-2014 02:10:00 7.5 C 6.96 g/m*3 4.9 C 14.5 km/h
28 22-12-2014 02:15:00 7.4 C 6.92 g/m*3 4.36 C 17.7 km/h
29 22-12-2014 02:20:00 7.4 C 7 g/m*3 4.36 C 17.7 km/h
30 22-12-2014 02:25:00 7.4 C 7 g/m*3 3.39 C 27.4 km/h
31 22-12-2014 02:30:00 7.4 C 7 g/m*3 3.84 C 22.5 km/h
32 22-12-2014 02:35:00 7.4 C 7 g/m*3 4.78 C 14.5 km/h
33 22-12-2014 02:40:00 7.4 C 7 g/m*3 3.39 C 27.4 km/h
34 22-12-2014 02:45:00 7.4 C 7 g/m*3 3.14 C 30.6 km/h
35 22-12-2014 02:50:00 7.4 C 7 g/m*3 4.36 C 17.7 km/h
36 22-12-2014 02:55:00 7.4 C 7 g/m*3 4.36 C 17.7 km/h
37 22-12-2014 03:00:00 7.4 C 7 g/m*3 4.78 C 14.5 km/h
38 22-12-2014 03:05:00 7.4 C 7 g/m*3 4.17 C 19.3 km/h
39 22-12-2014 03:10:00 7.4 C 7 g/m*3 4.78 C 14.5 km/h
40 22-12-2014 03:15:00 7.4 C 7 g/m*3 4 C 20.9 km/h
41 22-12-2014 03:20:00 7.4 C 7.08 g/m*3 4.56 C 16.1 km/h
42 22-12-2014 03:25:00 7.4 C 7.08 g/m*3 3.68 C 24.1 km/h
43 22-12-2014 03:30:00 7.4 C 7.08 g/m*3 4 C 20.9 km/h
44 22-12-2014 03:35:00 7.4 C 7 g/m*3 4.56 C 16.1 km/h
45 22-12-2014 03:40:00 7.4 C 7 g/m*3 3.26 C 29 km/h
46 22-12-2014 03:45:00 7.5 C 7.04 g/m*3 3.27 C 30.6 km/h
47 22-12-2014 03:50:00 7.6 C 7.01 g/m*3 3.4 C 30.6 km/h
48 22-12-2014 03:55:00 7.7 C 7.05 g/m*3 3.65 C 29 km/h
49 22-12-2014 04:00:00 7.7 C 7.05 g/m*3 3.41 C 32.2 km/h
50 22-12-2014 04:05:00 7.7 C 7.05 g/m*3 4.73 C 17.7 km/h
Sensor: Nr:Datum:Temp:Abs-Feuchte:Windchill:Wind:
Aussen-T/F 51 22-12-2014 04:10:00 7.7 C 6.97 g/m*3 3.3 C 33.8 km/h
52 22-12-2014 04:15:00 7.7 C 7.05 g/m*3 3.78 C 27.4 km/h
53 22-12-2014 04:20:00 7.7 C 7.05 g/m*3 4.55 C 19.3 km/h
54 22-12-2014 04:25:00 7.7 C 7.05 g/m*3 4.38 C 20.9 km/h
55 22-12-2014 04:30:00 7.7 C 7.05 g/m*3 4.22 C 22.5 km/h
56 22-12-2014 04:35:00 7.7 C 7.05 g/m*3 4.22 C 22.5 km/h
57 22-12-2014 04:40:00 7.7 C 7.05 g/m*3 3.41 C 32.2 km/h
58 22-12-2014 04:45:00 7.7 C 7.05 g/m*3 3.65 C 29 km/h
59 22-12-2014 04:50:00 7.7 C 7.05 g/m*3 4.38 C 20.9 km/h
60 22-12-2014 04:55:00 7.8 C 7.1 g/m*3 4.2 C 24.1 km/h
61 22-12-2014 05:00:00 7.7 C 7.05 g/m*3 3.92 C 25.7 km/h
62 22-12-2014 05:05:00 7.7 C 7.05 g/m*3 4.22 C 22.5 km/h
63 22-12-2014 05:10:00 7.7 C 7.05 g/m*3 4.93 C 16.1 km/h
64 22-12-2014 05:15:00 7.7 C 7.05 g/m*3 4.07 C 24.1 km/h
65 22-12-2014 05:20:00 7.8 C 7.1 g/m*3 4.35 C 22.5 km/h
66 22-12-2014 05:25:00 7.8 C 7.1 g/m*3 4.51 C 20.9 km/h
67 22-12-2014 05:30:00 7.8 C 7.1 g/m*3 4.2 C 24.1 km/h
68 22-12-2014 05:35:00 7.8 C 7.1 g/m*3 4.68 C 19.3 km/h
69 22-12-2014 05:40:00 7.8 C 7.1 g/m*3 4.68 C 19.3 km/h
70 22-12-2014 05:45:00 7.8 C 7.1 g/m*3 4.51 C 20.9 km/h
71 22-12-2014 05:50:00 7.8 C 7.1 g/m*3 5.06 C 16.1 km/h
72 22-12-2014 05:55:00 7.8 C 7.1 g/m*3 4.86 C 17.7 km/h
73 22-12-2014 06:00:00 7.7 C 7.05 g/m*3 4.22 C 22.5 km/h
74 22-12-2014 06:05:00 7.7 C 7.05 g/m*3 4.73 C 17.7 km/h
75 22-12-2014 06:10:00 7.7 C 7.14 g/m*3 4.55 C 19.3 km/h
Sensor: Nr:Datum:Temp:Abs-Feuchte:Windchill:Wind:
Aussen-T/F 76 22-12-2014 06:15:00 7.7 C 7.14 g/m*3 5.65 C 11.3 km/h
77 22-12-2014 06:20:00 7.7 C 7.14 g/m*3 5.38 C 12.9 km/h
78 22-12-2014 06:25:00 7.7 C 7.14 g/m*3 4.55 C 19.3 km/h
79 22-12-2014 06:30:00 7.7 C 7.14 g/m*3 4.55 C 19.3 km/h
80 22-12-2014 06:35:00 7.8 C 7.18 g/m*3 4.2 C 24.1 km/h
81 22-12-2014 06:40:00 7.8 C 7.18 g/m*3 4.51 C 20.9 km/h
82 22-12-2014 06:45:00 7.8 C 7.18 g/m*3 4.51 C 20.9 km/h
83 22-12-2014 06:50:00 7.8 C 7.18 g/m*3 4.05 C 25.7 km/h
84 22-12-2014 06:55:00 7.8 C 7.18 g/m*3 4.68 C 19.3 km/h
85 22-12-2014 07:00:00 7.8 C 7.18 g/m*3 5.06 C 16.1 km/h
86 22-12-2014 07:05:00 7.8 C 7.18 g/m*3 5.27 C 14.5 km/h
87 22-12-2014 07:10:00 7.8 C 7.18 g/m*3 4.51 C 20.9 km/h
88 22-12-2014 07:15:00 7.8 C 7.18 g/m*3 4.68 C 19.3 km/h
89 22-12-2014 07:20:00 7.8 C 7.18 g/m*3 4.35 C 22.5 km/h
90 22-12-2014 07:25:00 7.8 C 7.18 g/m*3 4.35 C 22.5 km/h
91 22-12-2014 07:30:00 7.8 C 7.18 g/m*3 3.78 C 29 km/h
92 22-12-2014 07:35:00 7.8 C 7.18 g/m*3 4.51 C 20.9 km/h
93 22-12-2014 07:40:00 7.8 C 7.18 g/m*3 4.68 C 19.3 km/h
94 22-12-2014 07:45:00 7.8 C 7.18 g/m*3 4.86 C 17.7 km/h
95 22-12-2014 07:50:00 7.8 C 7.18 g/m*3 4.51 C 20.9 km/h
96 22-12-2014 07:55:00 7.9 C 7.23 g/m*3 4.32 C 24.1 km/h
97 22-12-2014 08:00:00 7.9 C 7.23 g/m*3 4.47 C 22.5 km/h
98 22-12-2014 08:05:00 7.9 C 7.23 g/m*3 4.8 C 19.3 km/h
99 22-12-2014 08:10:00 7.9 C 7.23 g/m*3 4.8 C 19.3 km/h
100 22-12-2014 08:15:00 7.9 C 7.15 g/m*3 5.39 C 14.5 km/h
Sensor: Nr:Datum:Temp:Abs-Feuchte:Windchill:Wind:
Aussen-T/F 101 22-12-2014 08:20:00 7.9 C 7.15 g/m*3 4.18 C 25.7 km/h
102 22-12-2014 08:25:00 7.9 C 7.15 g/m*3 4.04 C 27.4 km/h
103 22-12-2014 08:30:00 7.9 C 7.15 g/m*3 5.63 C 12.9 km/h
104 22-12-2014 08:35:00 7.9 C 7.15 g/m*3 4.98 C 17.7 km/h
105 22-12-2014 08:40:00 7.9 C 7.15 g/m*3 4.18 C 25.7 km/h
106 22-12-2014 08:45:00 7.9 C 7.15 g/m*3 4.32 C 24.1 km/h
107 22-12-2014 08:50:00 8 C 7.19 g/m*3 5.11 C 17.7 km/h
108 22-12-2014 08:55:00 7.9 C 7.15 g/m*3 4.47 C 22.5 km/h
109 22-12-2014 09:00:00 7.9 C 7.15 g/m*3 4.32 C 24.1 km/h
110 22-12-2014 09:05:00 7.9 C 7.15 g/m*3 4.8 C 19.3 km/h
111 22-12-2014 09:10:00 7.9 C 7.15 g/m*3 4.47 C 22.5 km/h
112 22-12-2014 09:15:00 7.9 C 7.15 g/m*3 4.98 C 17.7 km/h
113 22-12-2014 09:20:00 7.9 C 7.15 g/m*3 4.18 C 25.7 km/h
114 22-12-2014 09:25:00 7.9 C 7.15 g/m*3 4.47 C 22.5 km/h
115 22-12-2014 09:30:00 7.9 C 7.15 g/m*3 4.04 C 27.4 km/h
116 22-12-2014 09:35:00 8 C 7.19 g/m*3 3.92 C 30.6 km/h
117 22-12-2014 09:40:00 8.1 C 7.24 g/m*3 3.52 C 38.6 km/h
118 22-12-2014 09:45:00 8.1 C 7.24 g/m*3 4.17 C 29 km/h
119 22-12-2014 09:50:00 8.1 C 7.24 g/m*3 4.73 C 22.5 km/h
120 22-12-2014 09:55:00 8.1 C 7.24 g/m*3 4.58 C 24.1 km/h
121 22-12-2014 10:00:00 8.1 C 7.16 g/m*3 4.89 C 20.9 km/h
122 22-12-2014 10:05:00 8.1 C 7.16 g/m*3 4.73 C 22.5 km/h
123 22-12-2014 10:10:00 8.1 C 7.16 g/m*3 4.3 C 27.4 km/h
124 22-12-2014 10:15:00 8.1 C 7.16 g/m*3 5.05 C 19.3 km/h
125 22-12-2014 10:20:00 8.1 C 7.16 g/m*3 4.89 C 20.9 km/h
Sensor: Nr:Datum:Temp:Abs-Feuchte:Windchill:Wind:
Aussen-T/F 126 22-12-2014 10:25:00 8.1 C 7.24 g/m*3 4.05 C 30.6 km/h
127 22-12-2014 10:30:00 8.1 C 7.24 g/m*3 4.89 C 20.9 km/h
128 22-12-2014 10:35:00 8.1 C 7.24 g/m*3 4.17 C 29 km/h
129 22-12-2014 10:40:00 8.1 C 7.24 g/m*3 4.73 C 22.5 km/h
130 22-12-2014 10:45:00 8.1 C 7.24 g/m*3 4.17 C 29 km/h
131 22-12-2014 10:50:00 8.1 C 7.24 g/m*3 4.89 C 20.9 km/h
132 22-12-2014 10:55:00 8.1 C 7.16 g/m*3 5.05 C 19.3 km/h
133 22-12-2014 11:00:00 8.1 C 7.16 g/m*3 5.05 C 19.3 km/h
134 22-12-2014 11:05:00 8.2 C 7.2 g/m*3 4.86 C 22.5 km/h
135 22-12-2014 11:10:00 8.2 C 7.2 g/m*3 4.86 C 22.5 km/h
136 22-12-2014 11:15:00 8.2 C 7.2 g/m*3 5.01 C 20.9 km/h
137 22-12-2014 11:20:00 8.2 C 7.2 g/m*3 5.55 C 16.1 km/h
138 22-12-2014 11:25:00 8.2 C 7.2 g/m*3 5.18 C 19.3 km/h
139 22-12-2014 11:30:00 8.2 C 7.2 g/m*3 4.3 C 29 km/h
140 22-12-2014 11:35:00 8.2 C 7.2 g/m*3 5.55 C 16.1 km/h
141 22-12-2014 11:40:00 8.2 C 7.2 g/m*3 5.76 C 14.5 km/h
142 22-12-2014 11:45:00 8.2 C 7.2 g/m*3 5.55 C 16.1 km/h
143 22-12-2014 11:50:00 8.2 C 7.2 g/m*3 4.86 C 22.5 km/h
144 22-12-2014 11:55:00 8.2 C 7.2 g/m*3 5.36 C 17.7 km/h
145 22-12-2014 12:00:00 8.2 C 7.2 g/m*3 4.43 C 27.4 km/h
146 22-12-2014 12:05:00 8.2 C 7.2 g/m*3 5.36 C 17.7 km/h
147 22-12-2014 12:10:00 8.2 C 7.29 g/m*3 4.18 C 30.6 km/h
148 22-12-2014 12:15:00 8.2 C 7.29 g/m*3 5.36 C 17.7 km/h
149 22-12-2014 12:20:00 8.2 C 7.29 g/m*3 5.55 C 16.1 km/h
150 22-12-2014 12:25:00 8.2 C 7.29 g/m*3 6.54 C 9.7 km/h
Sensor: Nr:Datum:Temp:Abs-Feuchte:Windchill:Wind:
Aussen-T/F 151 22-12-2014 12:30:00 8.2 C 7.29 g/m*3 5.36 C 17.7 km/h
152 22-12-2014 12:35:00 8.2 C 7.2 g/m*3 5.76 C 14.5 km/h
153 22-12-2014 12:40:00 8.3 C 7.25 g/m*3 5.48 C 17.7 km/h
154 22-12-2014 12:45:00 8.3 C 7.33 g/m*3 5.48 C 17.7 km/h
155 22-12-2014 12:50:00 8.3 C 7.33 g/m*3 5.31 C 19.3 km/h
156 22-12-2014 12:55:00 8.3 C 7.25 g/m*3 4.84 C 24.1 km/h
157 22-12-2014 13:00:00 8.3 C 7.33 g/m*3 5.14 C 20.9 km/h
158 22-12-2014 13:05:00 8.3 C 7.33 g/m*3 5.31 C 19.3 km/h
159 22-12-2014 13:10:00 8.4 C 7.38 g/m*3 6.01 C 14.5 km/h
160 22-12-2014 13:15:00 8.3 C 7.33 g/m*3 5.89 C 14.5 km/h
161 22-12-2014 13:20:00 8.3 C 7.33 g/m*3 5.89 C 14.5 km/h
162 22-12-2014 13:25:00 8.3 C 7.33 g/m*3 6.66 C 9.7 km/h
163 22-12-2014 13:30:00 8.3 C 7.33 g/m*3 5.48 C 17.7 km/h
164 22-12-2014 13:35:00 8.3 C 7.33 g/m*3 6.12 C 12.9 km/h
165 22-12-2014 13:40:00 8.4 C 7.38 g/m*3 6.49 C 11.3 km/h
166 22-12-2014 13:45:00 8.4 C 7.38 g/m*3 5.8 C 16.1 km/h
167 22-12-2014 13:50:00 8.4 C 7.38 g/m*3 5.61 C 17.7 km/h
168 22-12-2014 13:55:00 8.4 C 7.38 g/m*3 6.78 C 9.7 km/h
169 22-12-2014 14:00:00 8.4 C 7.38 g/m*3 6.24 C 12.9 km/h
170 22-12-2014 14:05:00 8.4 C 7.38 g/m*3 5.8 C 16.1 km/h
171 22-12-2014 14:10:00 8.4 C 7.38 g/m*3 5.27 C 20.9 km/h
172 22-12-2014 14:15:00 8.4 C 7.38 g/m*3 4.96 C 24.1 km/h
173 22-12-2014 14:20:00 8.5 C 7.43 g/m*3 5.73 C 17.7 km/h
174 22-12-2014 14:25:00 8.6 C 7.48 g/m*3 5.86 C 17.7 km/h
175 22-12-2014 14:30:00 8.6 C 7.48 g/m*3 6.25 C 14.5 km/h
Sensor: Nr:Datum:Temp:Abs-Feuchte:Windchill:Wind:
Aussen-T/F 176 22-12-2014 14:35:00 8.7 C 7.52 g/m*3 5.81 C 19.3 km/h
177 22-12-2014 14:40:00 8.7 C 7.52 g/m*3 5.35 C 24.1 km/h
178 22-12-2014 14:45:00 8.7 C 7.52 g/m*3 5.65 C 20.9 km/h
179 22-12-2014 14:50:00 8.7 C 7.52 g/m*3 6.38 C 14.5 km/h
180 22-12-2014 14:55:00 8.7 C 7.52 g/m*3 5.49 C 22.5 km/h
181 22-12-2014 15:00:00 8.7 C 7.52 g/m*3 5.65 C 20.9 km/h
182 22-12-2014 15:05:00 8.7 C 7.52 g/m*3 6.17 C 16.1 km/h
183 22-12-2014 15:10:00 8.7 C 7.52 g/m*3 5.81 C 19.3 km/h
184 22-12-2014 15:15:00 8.7 C 7.52 g/m*3 4.62 C 33.8 km/h
185 22-12-2014 15:20:00 8.8 C 7.57 g/m*3 5.34 C 25.7 km/h
186 22-12-2014 15:25:00 8.8 C 7.57 g/m*3 5.08 C 29 km/h
187 22-12-2014 15:30:00 8.8 C 7.57 g/m*3 5.93 C 19.3 km/h
188 22-12-2014 15:35:00 8.8 C 7.57 g/m*3 5.77 C 20.9 km/h
189 22-12-2014 15:40:00 8.8 C 7.57 g/m*3 5.48 C 24.1 km/h
190 22-12-2014 15:45:00 8.7 C 7.52 g/m*3 5.98 C 17.7 km/h
191 22-12-2014 15:50:00 8.7 C 7.52 g/m*3 5.35 C 24.1 km/h
192 22-12-2014 15:55:00 8.7 C 7.52 g/m*3 6.85 C 11.3 km/h
193 22-12-2014 16:00:00 8.7 C 7.52 g/m*3 5.81 C 19.3 km/h
194 22-12-2014 16:05:00 8.7 C 7.61 g/m*3 5.98 C 17.7 km/h
195 22-12-2014 16:10:00 8.7 C 7.61 g/m*3 7.87 C 6.4 km/h
196 22-12-2014 16:15:00 8.7 C 7.61 g/m*3 6.38 C 14.5 km/h
197 22-12-2014 16:20:00 8.7 C 7.61 g/m*3 6.38 C 14.5 km/h
198 22-12-2014 16:25:00 8.8 C 7.66 g/m*3 6.3 C 16.1 km/h
199 22-12-2014 16:30:00 8.8 C 7.66 g/m*3 7.58 C 8.1 km/h
200 22-12-2014 16:35:00 8.8 C 7.66 g/m*3 6.5 C 14.5 km/h
Sensor: Nr:Datum:Temp:Abs-Feuchte:Windchill:Wind:
Aussen-T/F 201 22-12-2014 16:40:00 8.8 C 7.66 g/m*3 6.3 C 16.1 km/h
202 22-12-2014 16:45:00 8.8 C 7.66 g/m*3 7.25 C 9.7 km/h
203 22-12-2014 16:50:00 8.8 C 7.66 g/m*3 5.93 C 19.3 km/h
204 22-12-2014 16:55:00 8.8 C 7.66 g/m*3 5.77 C 20.9 km/h
205 22-12-2014 17:00:00 8.9 C 7.71 g/m*3 6.06 C 19.3 km/h
206 22-12-2014 17:05:00 8.9 C 7.71 g/m*3 6.62 C 14.5 km/h
207 22-12-2014 17:10:00 8.9 C 7.71 g/m*3 6.23 C 17.7 km/h
208 22-12-2014 17:15:00 8.9 C 7.71 g/m*3 6.06 C 19.3 km/h
209 22-12-2014 17:20:00 8.9 C 7.71 g/m*3 6.62 C 14.5 km/h
210 22-12-2014 17:25:00 8.9 C 7.71 g/m*3 7.09 C 11.3 km/h
211 22-12-2014 17:30:00 8.9 C 7.71 g/m*3 6.85 C 12.9 km/h
212 22-12-2014 17:35:00 8.9 C 7.71 g/m*3 5.6 C 24.1 km/h
213 22-12-2014 17:40:00 8.9 C 7.8 g/m*3 6.62 C 14.5 km/h
214 22-12-2014 17:45:00 8.9 C 7.8 g/m*3 5.9 C 20.9 km/h
215 22-12-2014 17:50:00 8.9 C 7.8 g/m*3 6.62 C 14.5 km/h
216 22-12-2014 17:55:00 8.9 C 7.8 g/m*3 6.42 C 16.1 km/h
217 22-12-2014 18:00:00 9 C 7.85 g/m*3 6.19 C 19.3 km/h
218 22-12-2014 18:05:00 9.1 C 7.9 g/m*3 6.87 C 14.5 km/h
219 22-12-2014 18:10:00 9.1 C 7.9 g/m*3 7.33 C 11.3 km/h
220 22-12-2014 18:15:00 9.1 C 7.9 g/m*3 6.15 C 20.9 km/h
221 22-12-2014 18:20:00 9.2 C 7.95 g/m*3 7.21 C 12.9 km/h
222 22-12-2014 18:25:00 9.2 C 7.95 g/m*3 6.61 C 17.7 km/h
223 22-12-2014 18:30:00 9.2 C 7.95 g/m*3 6.79 C 16.1 km/h
224 22-12-2014 18:35:00 9.2 C 7.95 g/m*3 7.73 C 9.7 km/h
225 22-12-2014 18:40:00 9.2 C 7.95 g/m*3 6.79 C 16.1 km/h
Sensor: Nr:Datum:Temp:Abs-Feuchte:Windchill:Wind:
Aussen-T/F 226 22-12-2014 18:45:00 9.2 C 7.95 g/m*3 5.6 C 29 km/h
227 22-12-2014 18:50:00 9.3 C 8 g/m*3 5.73 C 29 km/h
228 22-12-2014 18:55:00 9.3 C 8 g/m*3 6.41 C 20.9 km/h
229 22-12-2014 19:00:00 9.3 C 8 g/m*3 6.41 C 20.9 km/h
230 22-12-2014 19:05:00 9.3 C 8 g/m*3 6.56 C 19.3 km/h
231 22-12-2014 19:10:00 9.3 C 7.91 g/m*3 7.12 C 14.5 km/h
232 22-12-2014 19:15:00 9.4 C 7.96 g/m*3 7.7 C 11.3 km/h
233 22-12-2014 19:20:00 9.3 C 7.91 g/m*3 6.92 C 16.1 km/h
234 22-12-2014 19:25:00 9.3 C 7.91 g/m*3 6.73 C 17.7 km/h
235 22-12-2014 19:30:00 9.4 C 7.96 g/m*3 6.25 C 24.1 km/h
236 22-12-2014 19:35:00 9.4 C 7.96 g/m*3 7.24 C 14.5 km/h
237 22-12-2014 19:40:00 9.4 C 7.96 g/m*3 7.04 C 16.1 km/h
238 22-12-2014 19:45:00 9.4 C 7.96 g/m*3 6.86 C 17.7 km/h
239 22-12-2014 19:50:00 9.4 C 7.96 g/m*3 6.69 C 19.3 km/h
240 22-12-2014 19:55:00 9.5 C 8.01 g/m*3 6.37 C 24.1 km/h
241 22-12-2014 20:00:00 9.5 C 8.01 g/m*3 6.66 C 20.9 km/h
242 22-12-2014 20:05:00 9.5 C 8.01 g/m*3 7.36 C 14.5 km/h
243 22-12-2014 20:10:00 9.5 C 8.01 g/m*3 7.16 C 16.1 km/h
244 22-12-2014 20:15:00 9.4 C 7.96 g/m*3 6.86 C 17.7 km/h
245 22-12-2014 20:20:00 9.4 C 7.96 g/m*3 6.53 C 20.9 km/h
246 22-12-2014 20:25:00 9.4 C 7.96 g/m*3 6.25 C 24.1 km/h
247 22-12-2014 20:30:00 9.3 C 7.91 g/m*3 6.92 C 16.1 km/h
248 22-12-2014 20:35:00 9.4 C 7.96 g/m*3 6.11 C 25.7 km/h
249 22-12-2014 20:40:00 9.4 C 7.96 g/m*3 5.86 C 29 km/h
250 22-12-2014 20:45:00 9.3 C 7.91 g/m*3 6.12 C 24.1 km/h
Sensor: Nr:Datum:Temp:Abs-Feuchte:Windchill:Wind:
Aussen-T/F 251 22-12-2014 20:50:00 9.3 C 7.91 g/m*3 6.26 C 22.5 km/h
252 22-12-2014 20:55:00 9.3 C 7.91 g/m*3 5.85 C 27.4 km/h
253 22-12-2014 21:00:00 9.3 C 8 g/m*3 6.92 C 16.1 km/h
254 22-12-2014 21:05:00 9.3 C 8 g/m*3 6.73 C 17.7 km/h
255 22-12-2014 21:10:00 9.3 C 8 g/m*3 7.12 C 14.5 km/h
256 22-12-2014 21:15:00 9.2 C 7.95 g/m*3 6.79 C 16.1 km/h
257 22-12-2014 21:20:00 9.3 C 8 g/m*3 6.92 C 16.1 km/h
258 22-12-2014 21:25:00 9.3 C 8 g/m*3 7.12 C 14.5 km/h
259 22-12-2014 21:30:00 9.2 C 7.95 g/m*3 7.46 C 11.3 km/h
260 22-12-2014 21:35:00 9.2 C 7.95 g/m*3 6.79 C 16.1 km/h
261 22-12-2014 21:40:00 9.2 C 7.95 g/m*3 6.79 C 16.1 km/h
262 22-12-2014 21:45:00 9.3 C 8 g/m*3 7.58 C 11.3 km/h
263 22-12-2014 21:50:00 9.3 C 8 g/m*3 8.16 C 8.1 km/h
264 22-12-2014 21:55:00 9.3 C 8 g/m*3 8.16 C 8.1 km/h
265 22-12-2014 22:00:00 9.3 C 8 g/m*3 8.56 C 6.4 km/h
266 22-12-2014 22:05:00 9.3 C 8 g/m*3 7.85 C 9.7 km/h
267 22-12-2014 22:10:00 9.3 C 8 g/m*3 7.33 C 12.9 km/h
268 22-12-2014 22:15:00 9.3 C 8 g/m*3 7.85 C 9.7 km/h
269 22-12-2014 22:20:00 9.3 C 8 g/m*3 8.16 C 8.1 km/h
270 22-12-2014 22:25:00 9.3 C 8.09 g/m*3 7.58 C 11.3 km/h
271 22-12-2014 22:30:00 9.3 C 8.09 g/m*3 7.12 C 14.5 km/h
272 22-12-2014 22:35:00 9.4 C 8.05 g/m*3 8.68 C 6.4 km/h
273 22-12-2014 22:40:00 9.4 C 8.05 g/m*3 7.46 C 12.9 km/h
274 22-12-2014 22:45:00 9.4 C 8.05 g/m*3 8.28 C 8.1 km/h
275 22-12-2014 22:50:00 9.4 C 8.05 g/m*3 7.97 C 9.7 km/h
Sensor: Nr:Datum:Temp:Abs-Feuchte:Windchill:Wind:
Aussen-T/F 276 22-12-2014 22:55:00 9.4 C 8.05 g/m*3 9.4 C 4.8 km/h
277 22-12-2014 23:00:00 9.4 C 8.05 g/m*3 8.68 C 6.4 km/h
278 22-12-2014 23:05:00 9.5 C 8.1 g/m*3 7.58 C 12.9 km/h
279 22-12-2014 23:10:00 9.6 C 8.15 g/m*3 7.94 C 11.3 km/h
280 22-12-2014 23:15:00 9.6 C 8.15 g/m*3 8.91 C 6.4 km/h
281 22-12-2014 23:20:00 9.6 C 8.15 g/m*3 8.21 C 9.7 km/h
282 22-12-2014 23:25:00 9.7 C 8.2 g/m*3 8.63 C 8.1 km/h
283 22-12-2014 23:30:00 9.7 C 8.2 g/m*3 7.82 C 12.9 km/h
284 22-12-2014 23:35:00 9.7 C 8.2 g/m*3 8.33 C 9.7 km/h
285 22-12-2014 23:40:00 9.7 C 8.2 g/m*3 7.61 C 14.5 km/h
286 22-12-2014 23:45:00 9.7 C 8.2 g/m*3 7.82 C 12.9 km/h
287 22-12-2014 23:50:00 9.7 C 8.2 g/m*3 8.33 C 9.7 km/h
288 22-12-2014 23:55:00 9.8 C 8.26 g/m*3 8.18 C 11.3 km/h
289 23-12-2014 00:00:00 9.8 C 8.26 g/m*3 8.45 C 9.7 km/h
290 23-12-2014 00:05:00 9.8 C 8.26 g/m*3 8.18 C 11.3 km/h
291 23-12-2014 00:10:00 9.8 C 8.26 g/m*3 7.54 C 16.1 km/h
292 23-12-2014 00:15:00 9.8 C 8.26 g/m*3 7.73 C 14.5 km/h
293 23-12-2014 00:20:00 9.8 C 8.16 g/m*3 7.54 C 16.1 km/h
294 23-12-2014 00:25:00 9.9 C 8.22 g/m*3 7.48 C 17.7 km/h
295 23-12-2014 00:30:00 9.9 C 8.22 g/m*3 7.85 C 14.5 km/h
296 23-12-2014 00:35:00 9.9 C 8.22 g/m*3 8.3 C 11.3 km/h
297 23-12-2014 00:40:00 10 C 8.27 g/m*3 8.42 C 11.3 km/h
298 23-12-2014 00:45:00 10 C 8.27 g/m*3 9.37 C 6.4 km/h
299 23-12-2014 00:50:00 10 C 8.27 g/m*3 9.37 C 6.4 km/h
300 23-12-2014 00:55:00 10 C 8.27 g/m*3 8.42 C 11.3 km/h
Sensor: Nr:Datum:Temp:Abs-Feuchte:Windchill:Wind:
Aussen-T/F 301 23-12-2014 01:00:00 10.1 C 8.32 g/m*3 8.54 C 11.3 km/h
302 23-12-2014 01:05:00 10.1 C 8.32 g/m*3 8.54 C 11.3 km/h
303 23-12-2014 01:10:00 10.1 C 8.32 g/m*3 9.1 C 8.1 km/h
304 23-12-2014 01:15:00 10.1 C 8.32 g/m*3 8.31 C 12.9 km/h
305 23-12-2014 01:20:00 10.1 C 8.32 g/m*3 8.54 C 11.3 km/h
306 23-12-2014 01:25:00 10.1 C 8.32 g/m*3 9.1 C 8.1 km/h
307 23-12-2014 01:30:00 10.1 C 8.32 g/m*3 8.8 C 9.7 km/h
308 23-12-2014 01:35:00 10 C 8.27 g/m*3 8.68 C 9.7 km/h
309 23-12-2014 01:40:00 10 C 8.27 g/m*3 8.68 C 9.7 km/h
310 23-12-2014 01:45:00 10 C 8.27 g/m*3 9.37 C 6.4 km/h
311 23-12-2014 01:50:00 10.1 C 8.32 g/m*3 8.31 C 12.9 km/h
312 23-12-2014 01:55:00 10.1 C 8.32 g/m*3 7.91 C 16.1 km/h
313 23-12-2014 02:00:00 10.1 C 8.32 g/m*3 9.48 C 6.4 km/h
314 23-12-2014 02:05:00 10.1 C 8.32 g/m*3 8.31 C 12.9 km/h
315 23-12-2014 02:10:00 10.1 C 8.32 g/m*3 8.54 C 11.3 km/h
316 23-12-2014 02:15:00 10.1 C 8.32 g/m*3 8.1 C 14.5 km/h
317 23-12-2014 02:20:00 10.2 C 8.37 g/m*3 8.66 C 11.3 km/h
318 23-12-2014 02:25:00 10.2 C 8.28 g/m*3 8.03 C 16.1 km/h
319 23-12-2014 02:30:00 10.3 C 8.33 g/m*3 8.34 C 14.5 km/h
320 23-12-2014 02:35:00 10.3 C 8.33 g/m*3 7.82 C 19.3 km/h
321 23-12-2014 02:40:00 10.3 C 8.33 g/m*3 8.16 C 16.1 km/h
322 23-12-2014 02:45:00 10.3 C 8.33 g/m*3 8.34 C 14.5 km/h
323 23-12-2014 02:50:00 10.3 C 8.33 g/m*3 7.82 C 19.3 km/h
324 23-12-2014 02:55:00 10.4 C 8.38 g/m*3 8.11 C 17.7 km/h
325 23-12-2014 03:00:00 10.4 C 8.29 g/m*3 8.11 C 17.7 km/h
Sensor: Nr:Datum:Temp:Abs-Feuchte:Windchill:Wind:
Aussen-T/F 326 23-12-2014 03:05:00 10.4 C 8.29 g/m*3 8.67 C 12.9 km/h
327 23-12-2014 03:10:00 10.4 C 8.29 g/m*3 8.9 C 11.3 km/h
328 23-12-2014 03:15:00 10.3 C 8.33 g/m*3 7.53 C 22.5 km/h
329 23-12-2014 03:20:00 10.3 C 8.33 g/m*3 7.82 C 19.3 km/h
330 23-12-2014 03:25:00 10.2 C 8.28 g/m*3 8.03 C 16.1 km/h
331 23-12-2014 03:30:00 10.2 C 8.28 g/m*3 8.22 C 14.5 km/h
332 23-12-2014 03:35:00 10.2 C 8.28 g/m*3 9.22 C 8.1 km/h
333 23-12-2014 03:40:00 10.2 C 8.28 g/m*3 8.92 C 9.7 km/h
334 23-12-2014 03:45:00 10.2 C 8.28 g/m*3 8.43 C 12.9 km/h
335 23-12-2014 03:50:00 10.2 C 8.28 g/m*3 7.7 C 19.3 km/h
336 23-12-2014 03:55:00 10.3 C 8.33 g/m*3 7.27 C 25.7 km/h
337 23-12-2014 04:00:00 10.4 C 8.29 g/m*3 8.28 C 16.1 km/h
338 23-12-2014 04:05:00 10.3 C 8.24 g/m*3 8.78 C 11.3 km/h
339 23-12-2014 04:10:00 10.3 C 8.24 g/m*3 9.04 C 9.7 km/h
340 23-12-2014 04:15:00 10.3 C 8.33 g/m*3 8.55 C 12.9 km/h
341 23-12-2014 04:20:00 10.3 C 8.24 g/m*3 7.98 C 17.7 km/h
342 23-12-2014 04:25:00 10.4 C 8.29 g/m*3 7.95 C 19.3 km/h
343 23-12-2014 04:30:00 10.4 C 8.29 g/m*3 8.67 C 12.9 km/h
344 23-12-2014 04:35:00 10.4 C 8.29 g/m*3 8.47 C 14.5 km/h
345 23-12-2014 04:40:00 10.4 C 8.29 g/m*3 8.47 C 14.5 km/h
346 23-12-2014 04:45:00 10.5 C 8.34 g/m*3 8.8 C 12.9 km/h
347 23-12-2014 04:50:00 10.5 C 8.34 g/m*3 8.8 C 12.9 km/h
348 23-12-2014 04:55:00 10.5 C 8.34 g/m*3 8.23 C 17.7 km/h
349 23-12-2014 05:00:00 10.6 C 8.39 g/m*3 8.36 C 17.7 km/h
350 23-12-2014 05:05:00 10.5 C 8.24 g/m*3 8.8 C 12.9 km/h
Sensor: Nr:Datum:Temp:Abs-Feuchte:Windchill:Wind:
Aussen-T/F 351 23-12-2014 05:10:00 10.5 C 8.24 g/m*3 8.8 C 12.9 km/h
352 23-12-2014 05:15:00 10.5 C 8.24 g/m*3 8.8 C 12.9 km/h
353 23-12-2014 05:20:00 10.4 C 8.19 g/m*3 8.47 C 14.5 km/h
354 23-12-2014 05:25:00 10.4 C 8.29 g/m*3 8.9 C 11.3 km/h
355 23-12-2014 05:30:00 10.4 C 8.29 g/m*3 7.95 C 19.3 km/h
356 23-12-2014 05:35:00 10.4 C 8.19 g/m*3 8.9 C 11.3 km/h
357 23-12-2014 05:40:00 10.4 C 8.19 g/m*3 8.28 C 16.1 km/h
358 23-12-2014 05:45:00 10.5 C 8.24 g/m*3 9.28 C 9.7 km/h
359 23-12-2014 05:50:00 10.4 C 8.19 g/m*3 8.47 C 14.5 km/h
360 23-12-2014 05:55:00 10.4 C 8.19 g/m*3 8.11 C 17.7 km/h
361 23-12-2014 06:00:00 10.4 C 8.19 g/m*3 8.28 C 16.1 km/h
362 23-12-2014 06:05:00 10.5 C 8.24 g/m*3 8.8 C 12.9 km/h
363 23-12-2014 06:10:00 10.5 C 8.24 g/m*3 8.4 C 16.1 km/h
364 23-12-2014 06:15:00 10.6 C 8.3 g/m*3 8.53 C 16.1 km/h
365 23-12-2014 06:20:00 10.6 C 8.2 g/m*3 8.92 C 12.9 km/h
366 23-12-2014 06:25:00 10.6 C 8.3 g/m*3 8.53 C 16.1 km/h
367 23-12-2014 06:30:00 10.6 C 8.3 g/m*3 8.53 C 16.1 km/h
368 23-12-2014 06:35:00 10.5 C 8.24 g/m*3 9.28 C 9.7 km/h
369 23-12-2014 06:40:00 10.5 C 8.24 g/m*3 7.53 C 25.7 km/h
370 23-12-2014 06:45:00 10.5 C 8.24 g/m*3 7.92 C 20.9 km/h
371 23-12-2014 06:50:00 10.5 C 8.24 g/m*3 8.4 C 16.1 km/h
372 23-12-2014 06:55:00 10.6 C 8.3 g/m*3 8.2 C 19.3 km/h
373 23-12-2014 07:00:00 10.6 C 8.3 g/m*3 8.53 C 16.1 km/h
374 23-12-2014 07:05:00 10.5 C 8.24 g/m*3 8.59 C 14.5 km/h
375 23-12-2014 07:10:00 10.5 C 8.24 g/m*3 8.8 C 12.9 km/h
Sensor: Nr:Datum:Temp:Abs-Feuchte:Windchill:Wind:
Aussen-T/F 376 23-12-2014 07:15:00 10.4 C 8.19 g/m*3 8.9 C 11.3 km/h
377 23-12-2014 07:20:00 10.4 C 8.19 g/m*3 8.9 C 11.3 km/h
378 23-12-2014 07:25:00 10.4 C 8.19 g/m*3 7.95 C 19.3 km/h
379 23-12-2014 07:30:00 10.5 C 8.24 g/m*3 8.23 C 17.7 km/h
380 23-12-2014 07:35:00 10.5 C 8.24 g/m*3 8.23 C 17.7 km/h
381 23-12-2014 07:40:00 10.4 C 8.19 g/m*3 8.28 C 16.1 km/h
382 23-12-2014 07:45:00 10.5 C 8.24 g/m*3 9.57 C 8.1 km/h
383 23-12-2014 07:50:00 10.4 C 8.19 g/m*3 8.9 C 11.3 km/h
384 23-12-2014 07:55:00 10.4 C 8.19 g/m*3 8.67 C 12.9 km/h
385 23-12-2014 08:00:00 10.4 C 8.19 g/m*3 8.47 C 14.5 km/h
386 23-12-2014 08:05:00 10.4 C 8.19 g/m*3 8.67 C 12.9 km/h
387 23-12-2014 08:10:00 10.5 C 8.15 g/m*3 8.59 C 14.5 km/h
388 23-12-2014 08:15:00 10.4 C 8.1 g/m*3 9.46 C 8.1 km/h
389 23-12-2014 08:20:00 10.4 C 8.19 g/m*3 9.83 C 6.4 km/h
390 23-12-2014 08:25:00 10.4 C 8.19 g/m*3 8.67 C 12.9 km/h
391 23-12-2014 08:30:00 10.4 C 8.19 g/m*3 8.67 C 12.9 km/h
392 23-12-2014 08:35:00 10.4 C 8.19 g/m*3 8.11 C 17.7 km/h
393 23-12-2014 08:40:00 10.4 C 8.19 g/m*3 9.46 C 8.1 km/h
394 23-12-2014 08:45:00 10.4 C 8.19 g/m*3 9.46 C 8.1 km/h
395 23-12-2014 08:50:00 10.4 C 8.19 g/m*3 8.67 C 12.9 km/h
396 23-12-2014 08:55:00 10.4 C 8.1 g/m*3 8.67 C 12.9 km/h
397 23-12-2014 09:00:00 10.4 C 8.1 g/m*3 9.16 C 9.7 km/h
398 23-12-2014 09:05:00 10.4 C 8.1 g/m*3 9.16 C 9.7 km/h
399 23-12-2014 09:10:00 10.4 C 8.1 g/m*3 9.83 C 6.4 km/h
400 23-12-2014 09:15:00 10.4 C 8.1 g/m*3 9.16 C 9.7 km/h
Sensor: Nr:Datum:Temp:Abs-Feuchte:Windchill:Wind:
Aussen-T/F 401 23-12-2014 09:20:00 10.4 C 8.1 g/m*3 8.9 C 11.3 km/h
402 23-12-2014 09:25:00 10.4 C 8.1 g/m*3 8.11 C 17.7 km/h
403 23-12-2014 09:50:00 10.4 C 8.19 g/m*3 8.47 C 14.5 km/h
404 23-12-2014 09:55:00 10.4 C 8.19 g/m*3 9.46 C 8.1 km/h
405 23-12-2014 10:00:00 10.3 C 8.14 g/m*3 8.78 C 11.3 km/h
406 23-12-2014 10:05:00 10.4 C 8.19 g/m*3 7.95 C 19.3 km/h
407 23-12-2014 10:10:00 10.4 C 8.19 g/m*3 8.11 C 17.7 km/h
408 23-12-2014 10:15:00 10.4 C 8.19 g/m*3 8.47 C 14.5 km/h
409 23-12-2014 10:20:00 10.4 C 8.19 g/m*3 8.67 C 12.9 km/h
410 23-12-2014 10:25:00 10.4 C 8.19 g/m*3 8.28 C 16.1 km/h
411 23-12-2014 10:30:00 10.4 C 8.19 g/m*3 7.95 C 19.3 km/h
412 23-12-2014 10:35:00 10.4 C 8.19 g/m*3 8.67 C 12.9 km/h
413 23-12-2014 11:15:00 10.3 C 9.58 g/m*3 8.16 C 16.1 km/h
414 23-12-2014 11:20:00 10.3 C 8.14 g/m*3 8.34 C 14.5 km/h
415 23-12-2014 11:25:00 10.3 C 8.14 g/m*3 8.34 C 14.5 km/h
416 23-12-2014 11:30:00 10.3 C 8.24 g/m*3 8.34 C 14.5 km/h
417 23-12-2014 11:35:00 10.3 C 8.14 g/m*3 8.55 C 12.9 km/h
418 23-12-2014 11:40:00 10.3 C 8.24 g/m*3 7.82 C 19.3 km/h
419 23-12-2014 11:45:00 10.3 C 8.24 g/m*3 8.55 C 12.9 km/h
420 23-12-2014 11:50:00 10.3 C 8.24 g/m*3 7.98 C 17.7 km/h
421 23-12-2014 11:55:00 10.3 C 8.24 g/m*3 8.55 C 12.9 km/h
422 23-12-2014 12:00:00 10.3 C 8.24 g/m*3 8.55 C 12.9 km/h
423 23-12-2014 12:05:00 10.2 C 8.18 g/m*3 8.43 C 12.9 km/h
424 23-12-2014 12:10:00 10.2 C 8.18 g/m*3 8.03 C 16.1 km/h
425 23-12-2014 12:15:00 10.2 C 8.18 g/m*3 8.43 C 12.9 km/h
Sensor: Nr:Datum:Temp:Abs-Feuchte:Windchill:Wind:
Aussen-T/F 426 23-12-2014 12:20:00 10.2 C 8.18 g/m*3 7.86 C 17.7 km/h
427 23-12-2014 12:25:00 10.2 C 8.18 g/m*3 8.43 C 12.9 km/h
428 23-12-2014 13:05:00 10.3 C 9.58 g/m*3 8.16 C 16.1 km/h
429 23-12-2014 13:10:00 10.3 C 9.58 g/m*3 7.98 C 17.7 km/h
430 23-12-2014 13:15:00 10.3 C 8.24 g/m*3 8.55 C 12.9 km/h
431 23-12-2014 13:20:00 10.3 C 8.24 g/m*3 9.04 C 9.7 km/h
432 23-12-2014 13:25:00 10.3 C 8.24 g/m*3 8.78 C 11.3 km/h
433 23-12-2014 13:30:00 10.3 C 8.24 g/m*3 8.78 C 11.3 km/h
434 23-12-2014 13:35:00 10.3 C 8.24 g/m*3 8.55 C 12.9 km/h
435 23-12-2014 13:40:00 10.3 C 8.24 g/m*3 9.72 C 6.4 km/h
436 23-12-2014 13:45:00 10.3 C 8.24 g/m*3 9.34 C 8.1 km/h
437 23-12-2014 13:50:00 10.3 C 8.24 g/m*3 9.72 C 6.4 km/h
438 23-12-2014 13:55:00 10.3 C 8.24 g/m*3 8.78 C 11.3 km/h
439 23-12-2014 14:00:00 10.3 C 8.24 g/m*3 8.16 C 16.1 km/h
440 23-12-2014 14:05:00 10.4 C 8.29 g/m*3 8.67 C 12.9 km/h
441 23-12-2014 14:10:00 10.4 C 8.29 g/m*3 10.4 C 4.8 km/h
442 23-12-2014 14:15:00 10.5 C 8.34 g/m*3 8.07 C 19.3 km/h
443 23-12-2014 14:20:00 10.5 C 8.34 g/m*3 8.59 C 14.5 km/h
444 23-12-2014 14:25:00 10.5 C 8.34 g/m*3 8.8 C 12.9 km/h
445 23-12-2014 14:30:00 10.5 C 8.34 g/m*3 9.57 C 8.1 km/h
446 23-12-2014 14:35:00 10.5 C 8.34 g/m*3 9.28 C 9.7 km/h
447 23-12-2014 14:40:00 10.5 C 8.34 g/m*3 8.8 C 12.9 km/h
448 23-12-2014 14:45:00 10.4 C 8.29 g/m*3 8.67 C 12.9 km/h
449 23-12-2014 14:50:00 10.4 C 8.29 g/m*3 9.16 C 9.7 km/h
450 23-12-2014 14:55:00 10.4 C 8.29 g/m*3 8.67 C 12.9 km/h
Sensor: Nr:Datum:Temp:Abs-Feuchte:Windchill:Wind:
Aussen-T/F 451 23-12-2014 15:00:00 10.4 C 8.29 g/m*3 9.16 C 9.7 km/h
452 23-12-2014 15:05:00 10.4 C 8.29 g/m*3 9.46 C 8.1 km/h
453 23-12-2014 15:10:00 10.4 C 8.29 g/m*3 9.16 C 9.7 km/h
454 23-12-2014 15:15:00 10.3 C 8.24 g/m*3 9.04 C 9.7 km/h
455 23-12-2014 15:20:00 10.3 C 8.24 g/m*3 8.55 C 12.9 km/h
456 23-12-2014 15:25:00 10.3 C 8.24 g/m*3 7.98 C 17.7 km/h
457 23-12-2014 15:30:00 10.3 C 8.24 g/m*3 7.98 C 17.7 km/h
458 23-12-2014 15:35:00 10.3 C 8.24 g/m*3 8.55 C 12.9 km/h
459 23-12-2014 15:40:00 10.3 C 8.24 g/m*3 8.78 C 11.3 km/h
460 23-12-2014 15:45:00 10.3 C 8.24 g/m*3 9.34 C 8.1 km/h
461 23-12-2014 15:50:00 10.3 C 8.24 g/m*3 8.55 C 12.9 km/h
462 23-12-2014 15:55:00 10.3 C 8.24 g/m*3 8.55 C 12.9 km/h
463 23-12-2014 16:00:00 10.3 C 8.24 g/m*3 9.04 C 9.7 km/h
464 23-12-2014 16:05:00 10.3 C 8.24 g/m*3 9.04 C 9.7 km/h
465 23-12-2014 16:10:00 10.3 C 8.14 g/m*3 9.34 C 8.1 km/h
466 23-12-2014 16:15:00 10.2 C 8.18 g/m*3 9.22 C 8.1 km/h
467 23-12-2014 16:20:00 10.2 C 8.09 g/m*3 8.92 C 9.7 km/h
468 23-12-2014 16:25:00 10.2 C 8.09 g/m*3 8.92 C 9.7 km/h
469 23-12-2014 16:30:00 10.2 C 8.18 g/m*3 9.22 C 8.1 km/h
470 23-12-2014 16:35:00 10.2 C 8.09 g/m*3 8.92 C 9.7 km/h
471 23-12-2014 16:40:00 10.2 C 8.09 g/m*3 9.6 C 6.4 km/h
472 23-12-2014 16:45:00 10.1 C 8.13 g/m*3 10.1 C 4.8 km/h
473 23-12-2014 16:50:00 10.1 C 8.13 g/m*3 9.48 C 6.4 km/h
474 23-12-2014 16:55:00 10.1 C 8.13 g/m*3 8.8 C 9.7 km/h
475 23-12-2014 17:00:00 10.1 C 8.13 g/m*3 8.31 C 12.9 km/h
Sensor: Nr:Datum:Temp:Abs-Feuchte:Windchill:Wind:
Aussen-T/F 476 23-12-2014 17:05:00 10.1 C 8.04 g/m*3 8.8 C 9.7 km/h
477 23-12-2014 17:10:00 10.1 C 8.13 g/m*3 9.48 C 6.4 km/h
478 23-12-2014 17:15:00 10.1 C 8.04 g/m*3 8.31 C 12.9 km/h
479 23-12-2014 17:20:00 10.1 C 8.04 g/m*3 8.8 C 9.7 km/h
480 23-12-2014 17:25:00 10 C 8.08 g/m*3 8.99 C 8.1 km/h
481 23-12-2014 17:30:00 10 C 8.08 g/m*3 7.98 C 14.5 km/h
482 23-12-2014 17:35:00 10 C 8.08 g/m*3 8.19 C 12.9 km/h
483 23-12-2014 17:40:00 10 C 7.99 g/m*3 8.19 C 12.9 km/h
484 23-12-2014 17:45:00 9.9 C 8.03 g/m*3 8.3 C 11.3 km/h
485 23-12-2014 17:50:00 9.9 C 8.03 g/m*3 8.56 C 9.7 km/h
486 23-12-2014 17:55:00 9.9 C 7.94 g/m*3 7.85 C 14.5 km/h
487 23-12-2014 18:00:00 9.9 C 7.94 g/m*3 8.56 C 9.7 km/h
488 23-12-2014 18:05:00 9.9 C 7.94 g/m*3 8.56 C 9.7 km/h
489 23-12-2014 18:10:00 9.9 C 7.94 g/m*3 8.56 C 9.7 km/h
490 23-12-2014 18:15:00 9.9 C 7.94 g/m*3 8.56 C 9.7 km/h
491 23-12-2014 18:20:00 9.8 C 7.98 g/m*3 8.45 C 9.7 km/h
492 23-12-2014 18:25:00 9.8 C 7.89 g/m*3 8.18 C 11.3 km/h
493 23-12-2014 18:30:00 9.8 C 7.98 g/m*3 7.54 C 16.1 km/h
494 23-12-2014 18:35:00 9.8 C 7.89 g/m*3 8.75 C 8.1 km/h
495 23-12-2014 18:40:00 9.8 C 7.89 g/m*3 7.94 C 12.9 km/h
496 23-12-2014 18:45:00 9.8 C 7.89 g/m*3 7.94 C 12.9 km/h
497 23-12-2014 18:50:00 9.8 C 7.98 g/m*3 7.73 C 14.5 km/h
498 23-12-2014 18:55:00 9.8 C 7.98 g/m*3 8.18 C 11.3 km/h
499 23-12-2014 19:00:00 9.7 C 7.93 g/m*3 8.33 C 9.7 km/h
500 23-12-2014 19:05:00 9.7 C 7.93 g/m*3 8.06 C 11.3 km/h
Sensor: Nr:Datum:Temp:Abs-Feuchte:Windchill:Wind:
Aussen-T/F 501 23-12-2014 19:10:00 9.7 C 7.93 g/m*3 6.91 C 20.9 km/h
502 23-12-2014 19:15:00 9.7 C 7.93 g/m*3 9.02 C 6.4 km/h
503 23-12-2014 19:20:00 9.7 C 7.93 g/m*3 9.02 C 6.4 km/h
504 23-12-2014 19:25:00 9.6 C 7.79 g/m*3 7.7 C 12.9 km/h
505 23-12-2014 19:30:00 9.6 C 7.88 g/m*3 8.21 C 9.7 km/h
506 23-12-2014 19:35:00 9.6 C 7.88 g/m*3 7.7 C 12.9 km/h
507 23-12-2014 19:40:00 9.6 C 7.79 g/m*3 7.29 C 16.1 km/h
508 23-12-2014 19:45:00 9.6 C 7.79 g/m*3 6.79 C 20.9 km/h
509 23-12-2014 19:50:00 9.6 C 7.88 g/m*3 7.29 C 16.1 km/h
510 23-12-2014 19:55:00 9.6 C 7.79 g/m*3 7.48 C 14.5 km/h
511 23-12-2014 20:00:00 9.6 C 7.79 g/m*3 8.52 C 8.1 km/h
512 23-12-2014 20:05:00 9.5 C 7.83 g/m*3 9.5 C 4.8 km/h
513 23-12-2014 20:10:00 9.5 C 7.83 g/m*3 8.09 C 9.7 km/h
514 23-12-2014 20:15:00 9.4 C 7.78 g/m*3 7.7 C 11.3 km/h
515 23-12-2014 20:20:00 9.4 C 7.78 g/m*3 8.28 C 8.1 km/h
516 23-12-2014 20:25:00 9.4 C 7.78 g/m*3 7.97 C 9.7 km/h
517 23-12-2014 20:30:00 9.4 C 7.78 g/m*3 7.04 C 16.1 km/h
518 23-12-2014 20:35:00 9.4 C 7.69 g/m*3 7.46 C 12.9 km/h
519 23-12-2014 20:40:00 9.4 C 7.69 g/m*3 7.46 C 12.9 km/h
520 23-12-2014 20:45:00 9.4 C 7.69 g/m*3 8.28 C 8.1 km/h
521 23-12-2014 20:50:00 9.4 C 7.69 g/m*3 7.7 C 11.3 km/h
522 23-12-2014 20:55:00 9.4 C 7.69 g/m*3 7.7 C 11.3 km/h
523 23-12-2014 21:00:00 9.4 C 7.69 g/m*3 8.28 C 8.1 km/h
524 23-12-2014 21:05:00 9.3 C 7.64 g/m*3 7.33 C 12.9 km/h
525 23-12-2014 21:10:00 9.3 C 7.64 g/m*3 8.16 C 8.1 km/h
Sensor: Nr:Datum:Temp:Abs-Feuchte:Windchill:Wind:
Aussen-T/F 526 23-12-2014 21:15:00 9.3 C 7.64 g/m*3 8.56 C 6.4 km/h
527 23-12-2014 21:20:00 9.3 C 7.64 g/m*3 8.56 C 6.4 km/h
528 23-12-2014 21:25:00 9.2 C 7.59 g/m*3 8.05 C 8.1 km/h
529 23-12-2014 21:30:00 9.2 C 7.5 g/m*3 8.45 C 6.4 km/h
530 23-12-2014 21:35:00 9.3 C 7.46 g/m*3 7.33 C 12.9 km/h
531 23-12-2014 21:40:00 9.3 C 7.46 g/m*3 7.85 C 9.7 km/h
532 23-12-2014 21:45:00 9.3 C 7.37 g/m*3 6.73 C 17.7 km/h
533 23-12-2014 21:50:00 9.3 C 7.46 g/m*3 7.85 C 9.7 km/h
534 23-12-2014 21:55:00 9.3 C 7.46 g/m*3 7.85 C 9.7 km/h
535 23-12-2014 22:00:00 9.2 C 7.32 g/m*3 8.05 C 8.1 km/h
536 23-12-2014 22:05:00 9.2 C 7.32 g/m*3 7.73 C 9.7 km/h
537 23-12-2014 22:10:00 9.2 C 7.32 g/m*3 9.2 C 4.8 km/h
538 23-12-2014 22:15:00 9.2 C 7.32 g/m*3 9.2 C 4.8 km/h
539 23-12-2014 22:20:00 9.2 C 7.32 g/m*3 9.2 C 4.8 km/h
540 23-12-2014 22:25:00 9.2 C 7.32 g/m*3 8.05 C 8.1 km/h
541 23-12-2014 22:30:00 9.2 C 7.32 g/m*3 8.45 C 6.4 km/h
542 23-12-2014 22:35:00 9.1 C 7.28 g/m*3 7.33 C 11.3 km/h
543 23-12-2014 22:40:00 9.1 C 7.28 g/m*3 8.33 C 6.4 km/h
544 23-12-2014 22:45:00 9.1 C 7.28 g/m*3 9.1 C 4.8 km/h
545 23-12-2014 22:50:00 9.1 C 7.28 g/m*3 8.33 C 6.4 km/h
546 23-12-2014 22:55:00 9 C 7.23 g/m*3 7.21 C 11.3 km/h
547 23-12-2014 23:00:00 9 C 7.23 g/m*3 8.21 C 6.4 km/h
548 23-12-2014 23:05:00 8.9 C 7.18 g/m*3 7.69 C 8.1 km/h
549 23-12-2014 23:10:00 8.9 C 7.18 g/m*3 8.1 C 6.4 km/h
550 23-12-2014 23:15:00 8.9 C 7.1 g/m*3 8.1 C 6.4 km/h
Sensor: Nr:Datum:Temp:Abs-Feuchte:Windchill:Wind:
Aussen-T/F 551 23-12-2014 23:20:00 8.9 C 7.18 g/m*3 8.9 C 4.8 km/h
552 23-12-2014 23:25:00 8.8 C 7.14 g/m*3 7.98 C 6.4 km/h
553 23-12-2014 23:30:00 8.8 C 7.14 g/m*3 7.98 C 6.4 km/h
554 23-12-2014 23:35:00 8.8 C 7.14 g/m*3 8.8 C 4.8 km/h
555 23-12-2014 23:40:00 8.8 C 7.14 g/m*3 7.98 C 6.4 km/h
556 23-12-2014 23:45:00 8.7 C 7.09 g/m*3 7.13 C 9.7 km/h
557 23-12-2014 23:50:00 8.7 C 7.09 g/m*3 6.85 C 11.3 km/h
558 23-12-2014 23:55:00 8.7 C 7.09 g/m*3 7.87 C 6.4 km/h
559 24-12-2014 00:00:00 8.7 C 7.09 g/m*3 8.7 C 4.8 km/h
560 24-12-2014 00:05:00 8.7 C 7.09 g/m*3 7.13 C 9.7 km/h
561 24-12-2014 00:10:00 8.6 C 7.05 g/m*3 8.6 C 4.8 km/h
562 24-12-2014 00:15:00 8.6 C 7.05 g/m*3 7.34 C 8.1 km/h
563 24-12-2014 00:20:00 8.6 C 7.05 g/m*3 7.34 C 8.1 km/h
564 24-12-2014 00:25:00 8.5 C 7 g/m*3 8.5 C 3.2 km/h
565 24-12-2014 00:30:00 8.5 C 7.09 g/m*3 7.64 C 6.4 km/h
566 24-12-2014 00:35:00 8.4 C 6.96 g/m*3 7.11 C 8.1 km/h
567 24-12-2014 00:40:00 8.4 C 7.04 g/m*3 6.01 C 14.5 km/h
568 24-12-2014 00:45:00 8.4 C 7.04 g/m*3 8.4 C 4.8 km/h
569 24-12-2014 00:50:00 8.4 C 7.04 g/m*3 8.4 C 4.8 km/h
570 24-12-2014 00:55:00 8.3 C 7 g/m*3 8.3 C 1.6 km/h
571 24-12-2014 01:00:00 8.3 C 7 g/m*3 6.37 C 11.3 km/h
572 24-12-2014 01:05:00 8.2 C 7.03 g/m*3 8.2 C 4.8 km/h
573 24-12-2014 01:10:00 8.2 C 7.03 g/m*3 8.2 C 4.8 km/h
574 24-12-2014 01:15:00 8.2 C 7.03 g/m*3 5.99 C 12.9 km/h
575 24-12-2014 01:20:00 8.2 C 7.03 g/m*3 7.29 C 6.4 km/h
Sensor: Nr:Datum:Temp:Abs-Feuchte:Windchill:Wind:
Aussen-T/F 576 24-12-2014 01:25:00 8.2 C 6.95 g/m*3 5.76 C 14.5 km/h
577 24-12-2014 01:30:00 8.2 C 6.95 g/m*3 6.54 C 9.7 km/h
578 24-12-2014 01:35:00 8.2 C 6.95 g/m*3 8.2 C 4.8 km/h
579 24-12-2014 01:40:00 8.1 C 6.91 g/m*3 5.87 C 12.9 km/h
580 24-12-2014 01:45:00 8.1 C 6.91 g/m*3 6.42 C 9.7 km/h
581 24-12-2014 01:50:00 8.1 C 6.99 g/m*3 6.75 C 8.1 km/h
582 24-12-2014 01:55:00 8.1 C 6.99 g/m*3 8.1 C 4.8 km/h
583 24-12-2014 02:00:00 8 C 6.94 g/m*3 6.01 C 11.3 km/h
584 24-12-2014 02:05:00 7.9 C 6.82 g/m*3 5.89 C 11.3 km/h
585 24-12-2014 02:10:00 7.9 C 6.82 g/m*3 5.63 C 12.9 km/h
586 24-12-2014 02:15:00 7.9 C 6.82 g/m*3 6.18 C 9.7 km/h
587 24-12-2014 02:20:00 7.9 C 6.82 g/m*3 5.89 C 11.3 km/h
588 24-12-2014 02:25:00 7.8 C 6.77 g/m*3 5.77 C 11.3 km/h
589 24-12-2014 02:30:00 7.8 C 6.77 g/m*3 4.86 C 17.7 km/h
590 24-12-2014 02:35:00 7.8 C 6.86 g/m*3 4.86 C 17.7 km/h
591 24-12-2014 02:40:00 7.8 C 6.86 g/m*3 5.77 C 11.3 km/h
592 24-12-2014 02:45:00 7.7 C 6.81 g/m*3 5.65 C 11.3 km/h
593 24-12-2014 02:50:00 7.7 C 6.73 g/m*3 5.38 C 12.9 km/h
594 24-12-2014 02:55:00 7.7 C 6.81 g/m*3 5.15 C 14.5 km/h
595 24-12-2014 03:00:00 7.6 C 6.77 g/m*3 5.82 C 9.7 km/h
596 24-12-2014 03:05:00 7.6 C 6.77 g/m*3 5.26 C 12.9 km/h
597 24-12-2014 03:10:00 7.5 C 6.72 g/m*3 5.7 C 9.7 km/h
598 24-12-2014 03:15:00 7.4 C 6.68 g/m*3 6.37 C 6.4 km/h
599 24-12-2014 03:20:00 7.4 C 6.68 g/m*3 4.56 C 16.1 km/h
600 24-12-2014 03:25:00 7.4 C 6.68 g/m*3 4.36 C 17.7 km/h
Sensor: Nr:Datum:Temp:Abs-Feuchte:Windchill:Wind:
Aussen-T/F 601 24-12-2014 03:30:00 7.4 C 6.68 g/m*3 4.36 C 17.7 km/h
602 24-12-2014 03:35:00 7.4 C 6.68 g/m*3 4.17 C 19.3 km/h
603 24-12-2014 03:40:00 7.4 C 6.68 g/m*3 4.17 C 19.3 km/h
604 24-12-2014 03:45:00 7.4 C 6.68 g/m*3 5.28 C 11.3 km/h
605 24-12-2014 03:50:00 7.4 C 6.6 g/m*3 4.56 C 16.1 km/h
606 24-12-2014 03:55:00 7.3 C 6.64 g/m*3 5.47 C 9.7 km/h
607 24-12-2014 04:00:00 7.3 C 6.64 g/m*3 4.23 C 17.7 km/h
608 24-12-2014 04:05:00 7.3 C 6.56 g/m*3 6.25 C 6.4 km/h
609 24-12-2014 04:10:00 7.3 C 6.64 g/m*3 6.25 C 6.4 km/h
610 24-12-2014 04:15:00 7.3 C 6.64 g/m*3 7.3 C 4.8 km/h
611 24-12-2014 04:20:00 7.3 C 6.64 g/m*3 6.25 C 6.4 km/h
612 24-12-2014 04:25:00 7.3 C 6.56 g/m*3 4.44 C 16.1 km/h
613 24-12-2014 04:30:00 7.3 C 6.64 g/m*3 5.81 C 8.1 km/h
614 24-12-2014 04:35:00 7.3 C 6.56 g/m*3 5.81 C 8.1 km/h
615 24-12-2014 04:40:00 7.3 C 6.56 g/m*3 5.16 C 11.3 km/h
616 24-12-2014 04:45:00 7.4 C 6.52 g/m*3 4.56 C 16.1 km/h
617 24-12-2014 04:50:00 7.4 C 6.52 g/m*3 4.78 C 14.5 km/h
618 24-12-2014 04:55:00 7.4 C 6.6 g/m*3 5.58 C 9.7 km/h
619 24-12-2014 05:00:00 7.3 C 6.56 g/m*3 5.16 C 11.3 km/h
620 24-12-2014 05:05:00 7.3 C 6.56 g/m*3 4.05 C 19.3 km/h
621 24-12-2014 05:10:00 7.3 C 6.56 g/m*3 6.25 C 6.4 km/h
622 24-12-2014 05:15:00 7.3 C 6.56 g/m*3 5.81 C 8.1 km/h
623 24-12-2014 05:20:00 7.3 C 6.56 g/m*3 5.81 C 8.1 km/h
624 24-12-2014 05:25:00 7.4 C 6.6 g/m*3 5.28 C 11.3 km/h
625 24-12-2014 05:30:00 7.4 C 6.6 g/m*3 6.37 C 6.4 km/h
Sensor: Nr:Datum:Temp:Abs-Feuchte:Windchill:Wind:
Aussen-T/F 626 24-12-2014 05:35:00 7.4 C 6.6 g/m*3 5.58 C 9.7 km/h
627 24-12-2014 05:40:00 7.4 C 6.6 g/m*3 5.28 C 11.3 km/h
628 24-12-2014 05:45:00 7.3 C 6.56 g/m*3 5.16 C 11.3 km/h
629 24-12-2014 05:50:00 7.3 C 6.56 g/m*3 5.81 C 8.1 km/h
630 24-12-2014 05:55:00 7.3 C 6.56 g/m*3 4.9 C 12.9 km/h
631 24-12-2014 06:00:00 7.3 C 6.64 g/m*3 5.16 C 11.3 km/h
632 24-12-2014 06:05:00 7.3 C 6.64 g/m*3 5.16 C 11.3 km/h
633 24-12-2014 06:10:00 7.3 C 6.64 g/m*3 4.9 C 12.9 km/h
634 24-12-2014 06:15:00 7.3 C 6.64 g/m*3 4.66 C 14.5 km/h
635 24-12-2014 06:20:00 7.2 C 6.59 g/m*3 4.77 C 12.9 km/h
636 24-12-2014 06:25:00 7.2 C 6.59 g/m*3 5.35 C 9.7 km/h
637 24-12-2014 06:30:00 7.1 C 6.55 g/m*3 4.41 C 14.5 km/h
638 24-12-2014 06:35:00 7.1 C 6.55 g/m*3 4.19 C 16.1 km/h
639 24-12-2014 06:40:00 7.1 C 6.55 g/m*3 3.98 C 17.7 km/h
640 24-12-2014 06:45:00 7.1 C 6.63 g/m*3 4.92 C 11.3 km/h
641 24-12-2014 06:50:00 7.1 C 6.63 g/m*3 4.65 C 12.9 km/h
642 24-12-2014 06:55:00 7.1 C 6.63 g/m*3 4.92 C 11.3 km/h
643 24-12-2014 07:00:00 7.1 C 6.63 g/m*3 5.23 C 9.7 km/h
644 24-12-2014 07:05:00 7.1 C 6.63 g/m*3 4.92 C 11.3 km/h
645 24-12-2014 07:10:00 7.1 C 6.63 g/m*3 4.19 C 16.1 km/h
646 24-12-2014 07:15:00 7.1 C 6.63 g/m*3 5.23 C 9.7 km/h
647 24-12-2014 07:20:00 7.1 C 6.63 g/m*3 4.92 C 11.3 km/h
648 24-12-2014 07:25:00 7.1 C 6.63 g/m*3 5.58 C 8.1 km/h
649 24-12-2014 07:30:00 7.1 C 6.63 g/m*3 3.98 C 17.7 km/h
650 24-12-2014 07:35:00 7.2 C 6.67 g/m*3 4.77 C 12.9 km/h
Sensor: Nr:Datum:Temp:Abs-Feuchte:Windchill:Wind:
Aussen-T/F 651 24-12-2014 07:40:00 7.2 C 6.67 g/m*3 5.04 C 11.3 km/h
652 24-12-2014 07:45:00 7.2 C 6.67 g/m*3 5.04 C 11.3 km/h
653 24-12-2014 07:50:00 7.2 C 6.67 g/m*3 4.77 C 12.9 km/h
654 24-12-2014 07:55:00 7.2 C 6.67 g/m*3 4.53 C 14.5 km/h
655 24-12-2014 08:00:00 7.3 C 6.64 g/m*3 4.05 C 19.3 km/h
656 24-12-2014 08:05:00 7.3 C 6.72 g/m*3 6.25 C 6.4 km/h
657 24-12-2014 08:10:00 7.3 C 6.72 g/m*3 4.9 C 12.9 km/h
658 24-12-2014 08:15:00 7.3 C 6.72 g/m*3 4.9 C 12.9 km/h
659 24-12-2014 08:20:00 7.4 C 6.76 g/m*3 5.02 C 12.9 km/h
660 24-12-2014 08:25:00 7.4 C 6.68 g/m*3 5.28 C 11.3 km/h
661 24-12-2014 08:30:00 7.4 C 6.68 g/m*3 4.17 C 19.3 km/h
662 24-12-2014 08:35:00 7.6 C 6.77 g/m*3 4.81 C 16.1 km/h
663 24-12-2014 08:40:00 7.6 C 6.77 g/m*3 5.26 C 12.9 km/h
664 24-12-2014 08:45:00 7.6 C 6.77 g/m*3 4.81 C 16.1 km/h
665 24-12-2014 08:50:00 7.6 C 6.77 g/m*3 5.82 C 9.7 km/h
666 24-12-2014 08:55:00 7.7 C 6.81 g/m*3 4.55 C 19.3 km/h
667 24-12-2014 09:00:00 7.7 C 6.81 g/m*3 5.65 C 11.3 km/h
668 24-12-2014 09:05:00 7.7 C 6.81 g/m*3 4.22 C 22.5 km/h
669 24-12-2014 09:10:00 7.8 C 6.77 g/m*3 4.86 C 17.7 km/h
670 24-12-2014 09:15:00 7.8 C 6.77 g/m*3 4.51 C 20.9 km/h
671 24-12-2014 09:20:00 7.8 C 6.77 g/m*3 5.06 C 16.1 km/h
672 24-12-2014 09:25:00 7.9 C 6.82 g/m*3 4.47 C 22.5 km/h
673 24-12-2014 09:30:00 7.9 C 6.82 g/m*3 4.8 C 19.3 km/h
674 24-12-2014 09:35:00 7.9 C 6.82 g/m*3 4.8 C 19.3 km/h
675 24-12-2014 09:40:00 8 C 6.94 g/m*3 5.75 C 12.9 km/h
Sensor: Nr:Datum:Temp:Abs-Feuchte:Windchill:Wind:
Aussen-T/F 676 24-12-2014 09:45:00 8 C 6.94 g/m*3 5.3 C 16.1 km/h
677 24-12-2014 09:50:00 8 C 6.94 g/m*3 5.52 C 14.5 km/h
678 24-12-2014 09:55:00 8 C 6.94 g/m*3 5.52 C 14.5 km/h
679 24-12-2014 10:00:00 8.1 C 6.99 g/m*3 5.23 C 17.7 km/h
680 24-12-2014 10:05:00 8.1 C 6.99 g/m*3 5.05 C 19.3 km/h
681 24-12-2014 10:10:00 8.1 C 6.99 g/m*3 4.89 C 20.9 km/h
682 24-12-2014 10:15:00 8.1 C 6.99 g/m*3 5.23 C 17.7 km/h
683 24-12-2014 10:20:00 8.2 C 7.03 g/m*3 5.36 C 17.7 km/h
684 24-12-2014 10:25:00 8.2 C 7.03 g/m*3 5.55 C 16.1 km/h
685 24-12-2014 10:30:00 8.3 C 7 g/m*3 5.48 C 17.7 km/h
686 24-12-2014 10:35:00 8.3 C 7.08 g/m*3 5.89 C 14.5 km/h
687 24-12-2014 10:40:00 8.3 C 7 g/m*3 6.66 C 9.7 km/h
688 24-12-2014 10:45:00 8.3 C 7.08 g/m*3 6.66 C 9.7 km/h
689 24-12-2014 10:50:00 8.4 C 7.13 g/m*3 6.49 C 11.3 km/h
690 24-12-2014 10:55:00 8.4 C 7.13 g/m*3 6.01 C 14.5 km/h
691 24-12-2014 11:00:00 8.4 C 7.13 g/m*3 5.61 C 17.7 km/h
692 24-12-2014 11:05:00 8.4 C 7.13 g/m*3 6.01 C 14.5 km/h
693 24-12-2014 11:10:00 8.4 C 7.13 g/m*3 5.43 C 19.3 km/h
694 24-12-2014 11:15:00 8.5 C 7.17 g/m*3 5.56 C 19.3 km/h
695 24-12-2014 11:20:00 8.6 C 7.22 g/m*3 5.86 C 17.7 km/h
696 24-12-2014 11:25:00 8.6 C 7.22 g/m*3 5.86 C 17.7 km/h
697 24-12-2014 11:30:00 8.6 C 7.22 g/m*3 5.86 C 17.7 km/h
698 24-12-2014 11:35:00 8.6 C 7.22 g/m*3 6.25 C 14.5 km/h
699 24-12-2014 11:40:00 8.7 C 7.26 g/m*3 5.98 C 17.7 km/h
700 24-12-2014 11:45:00 8.7 C 7.35 g/m*3 6.17 C 16.1 km/h
Sensor: Nr:Datum:Temp:Abs-Feuchte:Windchill:Wind:
Aussen-T/F 701 24-12-2014 11:50:00 8.7 C 7.35 g/m*3 5.81 C 19.3 km/h
702 24-12-2014 11:55:00 8.8 C 7.4 g/m*3 6.3 C 16.1 km/h
703 24-12-2014 12:00:00 8.8 C 7.4 g/m*3 6.5 C 14.5 km/h
704 24-12-2014 12:05:00 8.9 C 7.45 g/m*3 6.85 C 12.9 km/h
705 24-12-2014 12:10:00 9.1 C 7.45 g/m*3 5.47 C 29 km/h
706 24-12-2014 12:15:00 9.2 C 7.5 g/m*3 5.6 C 29 km/h
707 24-12-2014 12:20:00 9.3 C 7.55 g/m*3 5.62 C 30.6 km/h
708 24-12-2014 12:25:00 9.3 C 7.55 g/m*3 5.62 C 30.6 km/h
709 24-12-2014 12:30:00 9.3 C 7.55 g/m*3 6.12 C 24.1 km/h
710 24-12-2014 12:35:00 9.3 C 7.55 g/m*3 6.56 C 19.3 km/h
711 24-12-2014 12:40:00 9.3 C 7.55 g/m*3 6.12 C 24.1 km/h
712 24-12-2014 12:45:00 9.3 C 7.55 g/m*3 6.12 C 24.1 km/h
713 24-12-2014 12:50:00 9.2 C 7.5 g/m*3 5.86 C 25.7 km/h
714 24-12-2014 12:55:00 9.2 C 7.59 g/m*3 6.99 C 14.5 km/h
715 24-12-2014 13:00:00 9.2 C 7.59 g/m*3 5.86 C 25.7 km/h
716 24-12-2014 13:05:00 9.2 C 7.59 g/m*3 5.99 C 24.1 km/h
717 24-12-2014 13:10:00 9.3 C 7.64 g/m*3 5.62 C 30.6 km/h
718 24-12-2014 13:15:00 9.3 C 7.64 g/m*3 6.26 C 22.5 km/h
719 24-12-2014 13:20:00 9.3 C 7.64 g/m*3 5.98 C 25.7 km/h
720 24-12-2014 13:25:00 9.3 C 7.64 g/m*3 6.26 C 22.5 km/h
721 24-12-2014 13:30:00 9.3 C 7.64 g/m*3 5.41 C 33.8 km/h
722 24-12-2014 13:35:00 9.3 C 7.64 g/m*3 5.41 C 33.8 km/h
723 24-12-2014 13:40:00 9.4 C 7.69 g/m*3 6.25 C 24.1 km/h
724 24-12-2014 13:45:00 9.5 C 7.65 g/m*3 6.37 C 24.1 km/h
725 24-12-2014 13:50:00 9.7 C 7.74 g/m*3 6.14 C 30.6 km/h
Sensor: Nr:Datum:Temp:Abs-Feuchte:Windchill:Wind:
Aussen-T/F 726 24-12-2014 13:55:00 9.8 C 7.7 g/m*3 6.89 C 22.5 km/h
727 24-12-2014 14:00:00 9.8 C 7.7 g/m*3 6.76 C 24.1 km/h
728 24-12-2014 14:05:00 9.9 C 7.75 g/m*3 6.1 C 35.4 km/h
729 24-12-2014 14:10:00 10.1 C 7.75 g/m*3 7.14 C 24.1 km/h
730 24-12-2014 14:15:00 10.1 C 7.75 g/m*3 7.73 C 17.7 km/h
731 24-12-2014 14:20:00 10.1 C 7.85 g/m*3 8.1 C 14.5 km/h
732 24-12-2014 14:25:00 10.2 C 7.8 g/m*3 7.27 C 24.1 km/h
733 24-12-2014 14:30:00 10.2 C 7.9 g/m*3 8.03 C 16.1 km/h
734 24-12-2014 14:35:00 10.2 C 7.9 g/m*3 7.7 C 19.3 km/h
735 24-12-2014 14:40:00 10.1 C 7.85 g/m*3 7.14 C 24.1 km/h
736 24-12-2014 14:45:00 10.1 C 7.85 g/m*3 7.73 C 17.7 km/h
737 24-12-2014 14:50:00 10.1 C 7.94 g/m*3 7.42 C 20.9 km/h
738 24-12-2014 14:55:00 10 C 7.89 g/m*3 7.44 C 19.3 km/h
739 24-12-2014 15:00:00 9.9 C 7.84 g/m*3 6.4 C 30.6 km/h
740 24-12-2014 15:05:00 9.9 C 7.84 g/m*3 6.3 C 32.2 km/h
741 24-12-2014 15:10:00 9.8 C 7.89 g/m*3 5.87 C 37 km/h
742 24-12-2014 15:15:00 9.8 C 7.89 g/m*3 5.87 C 37 km/h
743 24-12-2014 15:20:00 9.7 C 7.84 g/m*3 6.63 C 24.1 km/h
744 24-12-2014 15:25:00 9.6 C 7.79 g/m*3 7.11 C 17.7 km/h
745 24-12-2014 15:30:00 9.6 C 7.88 g/m*3 6.01 C 30.6 km/h
746 24-12-2014 15:35:00 9.6 C 7.88 g/m*3 6.79 C 20.9 km/h
747 24-12-2014 15:40:00 9.6 C 7.88 g/m*3 6.12 C 29 km/h
748 24-12-2014 15:45:00 9.5 C 7.83 g/m*3 5.88 C 30.6 km/h
749 24-12-2014 15:50:00 9.4 C 7.87 g/m*3 6.25 C 24.1 km/h
750 24-12-2014 15:55:00 9.4 C 7.87 g/m*3 6.38 C 22.5 km/h
Sensor: Nr:Datum:Temp:Abs-Feuchte:Windchill:Wind:
Aussen-T/F 751 24-12-2014 16:00:00 9.4 C 7.87 g/m*3 6.53 C 20.9 km/h
752 24-12-2014 16:05:00 9.4 C 7.87 g/m*3 6.38 C 22.5 km/h
753 24-12-2014 16:10:00 9.4 C 7.87 g/m*3 6.11 C 25.7 km/h
754 24-12-2014 16:15:00 9.3 C 7.91 g/m*3 6.41 C 20.9 km/h
755 24-12-2014 16:20:00 9.3 C 7.91 g/m*3 6.26 C 22.5 km/h
756 24-12-2014 16:25:00 9.2 C 7.86 g/m*3 6.13 C 22.5 km/h
757 24-12-2014 16:30:00 9.2 C 7.86 g/m*3 6.61 C 17.7 km/h
758 24-12-2014 16:35:00 9.2 C 7.95 g/m*3 6.28 C 20.9 km/h
759 24-12-2014 16:40:00 9.1 C 7.9 g/m*3 6.67 C 16.1 km/h
760 24-12-2014 16:45:00 9.1 C 7.99 g/m*3 5.86 C 24.1 km/h
761 24-12-2014 16:50:00 8.9 C 7.88 g/m*3 6.42 C 16.1 km/h
762 24-12-2014 16:55:00 8.9 C 7.97 g/m*3 5.33 C 27.4 km/h
763 24-12-2014 17:00:00 8.9 C 7.97 g/m*3 6.06 C 19.3 km/h
764 24-12-2014 17:05:00 8.8 C 7.92 g/m*3 4.97 C 30.6 km/h
765 24-12-2014 17:10:00 8.8 C 7.92 g/m*3 5.34 C 25.7 km/h
766 24-12-2014 17:15:00 8.9 C 7.97 g/m*3 6.42 C 16.1 km/h
767 24-12-2014 17:20:00 8.9 C 7.97 g/m*3 5.6 C 24.1 km/h
768 24-12-2014 17:25:00 8.9 C 7.97 g/m*3 5.75 C 22.5 km/h
769 24-12-2014 17:30:00 8.9 C 7.97 g/m*3 5.9 C 20.9 km/h
770 24-12-2014 17:35:00 8.9 C 7.97 g/m*3 5.6 C 24.1 km/h
771 24-12-2014 17:40:00 9 C 7.93 g/m*3 6.36 C 17.7 km/h
772 24-12-2014 17:45:00 9 C 7.93 g/m*3 5.87 C 22.5 km/h
773 24-12-2014 17:50:00 9.1 C 7.99 g/m*3 6 C 22.5 km/h
774 24-12-2014 17:55:00 9.1 C 7.99 g/m*3 5.59 C 27.4 km/h
775 24-12-2014 18:00:00 9.1 C 7.9 g/m*3 6 C 22.5 km/h
Sensor: Nr:Datum:Temp:Abs-Feuchte:Windchill:Wind:
Aussen-T/F 776 24-12-2014 18:05:00 9.2 C 7.95 g/m*3 6.99 C 14.5 km/h
777 24-12-2014 18:10:00 9.2 C 7.95 g/m*3 6.44 C 19.3 km/h
778 24-12-2014 18:15:00 9.2 C 7.95 g/m*3 6.28 C 20.9 km/h
779 24-12-2014 18:20:00 9.2 C 7.95 g/m*3 6.79 C 16.1 km/h
780 24-12-2014 18:25:00 9.2 C 7.95 g/m*3 6.99 C 14.5 km/h
781 24-12-2014 18:30:00 9.2 C 7.95 g/m*3 6.61 C 17.7 km/h
782 24-12-2014 18:35:00 9.2 C 7.95 g/m*3 6.28 C 20.9 km/h
783 24-12-2014 18:40:00 9.2 C 8.04 g/m*3 6.61 C 17.7 km/h
784 24-12-2014 18:45:00 9.2 C 8.04 g/m*3 7.21 C 12.9 km/h
785 24-12-2014 18:50:00 9.2 C 8.04 g/m*3 6.13 C 22.5 km/h
786 24-12-2014 18:55:00 9.2 C 8.04 g/m*3 6.28 C 20.9 km/h
787 24-12-2014 19:00:00 9.2 C 8.04 g/m*3 6.44 C 19.3 km/h
788 24-12-2014 19:05:00 9.2 C 8.04 g/m*3 6.61 C 17.7 km/h
789 24-12-2014 19:10:00 9.1 C 7.99 g/m*3 6.48 C 17.7 km/h
790 24-12-2014 19:15:00 9.1 C 7.99 g/m*3 6.48 C 17.7 km/h
791 24-12-2014 19:20:00 9.1 C 7.99 g/m*3 6.87 C 14.5 km/h
792 24-12-2014 19:25:00 9.2 C 8.04 g/m*3 6.79 C 16.1 km/h
793 24-12-2014 19:30:00 9.2 C 8.04 g/m*3 6.79 C 16.1 km/h
794 24-12-2014 19:35:00 9.3 C 8.09 g/m*3 7.58 C 11.3 km/h
795 24-12-2014 19:40:00 9.3 C 8.09 g/m*3 7.33 C 12.9 km/h
796 24-12-2014 19:45:00 9.3 C 8.09 g/m*3 6.73 C 17.7 km/h
797 24-12-2014 19:50:00 9.3 C 8.09 g/m*3 6.56 C 19.3 km/h
798 24-12-2014 19:55:00 9.4 C 8.14 g/m*3 6.25 C 24.1 km/h
799 24-12-2014 20:00:00 9.4 C 8.14 g/m*3 7.24 C 14.5 km/h
800 24-12-2014 20:05:00 9.4 C 8.14 g/m*3 7.24 C 14.5 km/h
Sensor: Nr:Datum:Temp:Abs-Feuchte:Windchill:Wind:
Aussen-T/F 801 24-12-2014 20:10:00 9.4 C 8.14 g/m*3 7.7 C 11.3 km/h
802 24-12-2014 20:15:00 9.4 C 8.14 g/m*3 6.69 C 19.3 km/h
803 24-12-2014 20:20:00 9.4 C 8.14 g/m*3 7.24 C 14.5 km/h
804 24-12-2014 20:25:00 9.5 C 8.19 g/m*3 6.82 C 19.3 km/h
805 24-12-2014 20:30:00 9.5 C 8.19 g/m*3 6.98 C 17.7 km/h
806 24-12-2014 20:35:00 9.4 C 8.23 g/m*3 7.97 C 9.7 km/h
807 24-12-2014 20:40:00 9.3 C 8.18 g/m*3 7.85 C 9.7 km/h
808 24-12-2014 20:45:00 9.2 C 8.22 g/m*3 7.46 C 11.3 km/h
809 24-12-2014 20:50:00 9.1 C 8.25 g/m*3 7.93 C 8.1 km/h
810 24-12-2014 20:55:00 9.1 C 8.25 g/m*3 7.93 C 8.1 km/h
811 24-12-2014 21:00:00 8.9 C 8.15 g/m*3 6.85 C 12.9 km/h
812 24-12-2014 21:05:00 8.7 C 8.04 g/m*3 6.38 C 14.5 km/h
813 24-12-2014 21:10:00 8.6 C 7.99 g/m*3 6.73 C 11.3 km/h
814 24-12-2014 21:15:00 8.6 C 7.99 g/m*3 7.01 C 9.7 km/h
815 24-12-2014 21:20:00 8.6 C 7.99 g/m*3 8.6 C 4.8 km/h
816 24-12-2014 21:40:00 8.1 C 7.74 g/m*3 8.1 C 1.6 km/h
817 24-12-2014 21:45:00 8.1 C 7.74 g/m*3 5.87 C 12.9 km/h
818 24-12-2014 21:50:00 8 C 7.69 g/m*3 7.06 C 6.4 km/h
819 24-12-2014 21:55:00 7.9 C 7.64 g/m*3 5.89 C 11.3 km/h
820 24-12-2014 22:00:00 7.9 C 7.64 g/m*3 5.89 C 11.3 km/h
821 24-12-2014 22:05:00 7.8 C 7.43 g/m*3 4.86 C 17.7 km/h
822 24-12-2014 22:10:00 7.7 C 7.3 g/m*3 4.93 C 16.1 km/h
823 24-12-2014 22:15:00 7.4 C 7.16 g/m*3 5.28 C 11.3 km/h
824 24-12-2014 22:20:00 7.3 C 7.11 g/m*3 4.9 C 12.9 km/h
825 24-12-2014 22:25:00 7.2 C 7.14 g/m*3 5.35 C 9.7 km/h
Sensor: Nr:Datum:Temp:Abs-Feuchte:Windchill:Wind:
Aussen-T/F 826 24-12-2014 22:30:00 7.2 C 7.14 g/m*3 6.13 C 6.4 km/h
827 24-12-2014 22:35:00 7.1 C 7.18 g/m*3 5.58 C 8.1 km/h
828 24-12-2014 22:40:00 7 C 7.13 g/m*3 5.46 C 8.1 km/h
829 24-12-2014 22:45:00 7 C 7.21 g/m*3 7 C 4.8 km/h
830 24-12-2014 22:50:00 6.9 C 7.16 g/m*3 6.9 C 4.8 km/h
831 24-12-2014 22:55:00 6.9 C 7.16 g/m*3 6.9 C 1.6 km/h
832 24-12-2014 23:00:00 6.9 C 7.16 g/m*3 6.9 C 4.8 km/h
833 24-12-2014 23:05:00 6.9 C 7.16 g/m*3 6.9 C 4.8 km/h
834 24-12-2014 23:10:00 6.9 C 7.16 g/m*3 6.9 C 4.8 km/h
835 24-12-2014 23:15:00 6.8 C 7.19 g/m*3 6.8 C 3.2 km/h
836 24-12-2014 23:20:00 6.8 C 7.11 g/m*3 6.8 C 3.2 km/h
837 24-12-2014 23:25:00 6.8 C 7.11 g/m*3 5.67 C 6.4 km/h
838 24-12-2014 23:30:00 6.8 C 7.11 g/m*3 6.8 C 3.2 km/h
839 24-12-2014 23:35:00 6.8 C 7.04 g/m*3 6.8 C 3.2 km/h
840 24-12-2014 23:40:00 6.8 C 7.04 g/m*3 5.67 C 6.4 km/h
841 24-12-2014 23:45:00 6.8 C 6.96 g/m*3 6.8 C 1.6 km/h
842 24-12-2014 23:50:00 6.7 C 6.99 g/m*3 6.7 C 3.2 km/h
843 24-12-2014 23:55:00 6.6 C 6.95 g/m*3 5.44 C 6.4 km/h
844 25-12-2014 00:00:00 6.6 C 6.95 g/m*3 6.6 C 4.8 km/h
845 25-12-2014 00:05:00 6.6 C 6.95 g/m*3 6.6 C 3.2 km/h
846 25-12-2014 00:10:00 6.6 C 6.95 g/m*3 6.6 C 1.6 km/h
847 25-12-2014 00:15:00 6.6 C 6.95 g/m*3 6.6 C 3.2 km/h
848 25-12-2014 00:20:00 6.5 C 6.9 g/m*3 6.5 C 3.2 km/h
849 25-12-2014 00:25:00 6.5 C 6.82 g/m*3 4.87 C 8.1 km/h
850 25-12-2014 00:30:00 6.6 C 6.64 g/m*3 4.99 C 8.1 km/h
Sensor: Nr:Datum:Temp:Abs-Feuchte:Windchill:Wind:
Aussen-T/F 851 25-12-2014 00:35:00 6.7 C 6.76 g/m*3 6.7 C 4.8 km/h
852 25-12-2014 00:40:00 6.7 C 6.76 g/m*3 5.11 C 8.1 km/h
853 25-12-2014 00:45:00 6.7 C 6.76 g/m*3 6.7 C 1.6 km/h
854 25-12-2014 00:50:00 6.7 C 6.61 g/m*3 6.7 C 3.2 km/h
855 25-12-2014 00:55:00 6.7 C 6.76 g/m*3 6.7 C 3.2 km/h
856 25-12-2014 01:00:00 6.6 C 6.57 g/m*3 6.6 C 3.2 km/h
857 25-12-2014 01:05:00 6.6 C 6.72 g/m*3 6.6 C 1.6 km/h
858 25-12-2014 01:10:00 6.5 C 6.67 g/m*3 5.33 C 6.4 km/h
859 25-12-2014 01:15:00 6.5 C 6.67 g/m*3 6.5 C 4.8 km/h
860 25-12-2014 01:20:00 6.5 C 6.67 g/m*3 6.5 C 1.6 km/h
861 25-12-2014 01:25:00 6.4 C 6.48 g/m*3 6.4 C 3.2 km/h
862 25-12-2014 01:30:00 6.4 C 6.56 g/m*3 6.4 C 3.2 km/h
863 25-12-2014 01:35:00 6.3 C 6.51 g/m*3 6.3 C 1.6 km/h
864 25-12-2014 01:40:00 6.2 C 6.32 g/m*3 4.98 C 6.4 km/h
865 25-12-2014 01:45:00 6.2 C 6.32 g/m*3 6.2 C 4.8 km/h
866 25-12-2014 01:50:00 6.1 C 6.28 g/m*3 6.1 C 1.6 km/h
867 25-12-2014 01:55:00 6 C 6.17 g/m*3 6 C 4.8 km/h
868 25-12-2014 02:00:00 6 C 6.17 g/m*3 4.28 C 8.1 km/h
869 25-12-2014 02:05:00 6 C 5.81 g/m*3 3.06 C 14.5 km/h
870 25-12-2014 02:10:00 6.1 C 5.77 g/m*3 4.04 C 9.7 km/h
871 25-12-2014 02:15:00 6.1 C 5.7 g/m*3 4.86 C 6.4 km/h
872 25-12-2014 02:20:00 5.9 C 5.77 g/m*3 5.9 C 3.2 km/h
873 25-12-2014 02:25:00 5.7 C 5.69 g/m*3 4.4 C 6.4 km/h
874 25-12-2014 02:30:00 5.6 C 5.66 g/m*3 4.29 C 6.4 km/h
875 25-12-2014 02:35:00 5.5 C 5.62 g/m*3 4.17 C 6.4 km/h
Sensor: Nr:Datum:Temp:Abs-Feuchte:Windchill:Wind:
Aussen-T/F 876 25-12-2014 02:40:00 5.5 C 5.55 g/m*3 2.99 C 11.3 km/h
877 25-12-2014 02:45:00 5.4 C 5.51 g/m*3 5.4 C 4.8 km/h
878 25-12-2014 02:50:00 5.3 C 5.61 g/m*3 3.94 C 6.4 km/h
879 25-12-2014 02:55:00 5.2 C 5.78 g/m*3 5.2 C 4.8 km/h
880 25-12-2014 03:00:00 5.1 C 5.68 g/m*3 5.1 C 3.2 km/h
881 25-12-2014 03:05:00 4.9 C 5.74 g/m*3 4.9 C 3.2 km/h
882 25-12-2014 03:10:00 4.7 C 5.66 g/m*3 3.25 C 6.4 km/h
883 25-12-2014 03:15:00 4.8 C 5.63 g/m*3 4.8 C 4.8 km/h
884 25-12-2014 03:20:00 4.8 C 5.63 g/m*3 4.8 C 4.8 km/h
885 25-12-2014 03:25:00 4.8 C 5.63 g/m*3 2.87 C 8.1 km/h
886 25-12-2014 03:30:00 4.9 C 5.54 g/m*3 4.9 C 4.8 km/h
887 25-12-2014 03:35:00 5.1 C 5.61 g/m*3 5.1 C 4.8 km/h
888 25-12-2014 03:40:00 5.2 C 5.58 g/m*3 3.34 C 8.1 km/h
889 25-12-2014 03:45:00 5.2 C 5.58 g/m*3 3.82 C 6.4 km/h
890 25-12-2014 03:50:00 5.2 C 5.65 g/m*3 5.2 C 4.8 km/h
891 25-12-2014 03:55:00 5.2 C 5.58 g/m*3 3.34 C 8.1 km/h
892 25-12-2014 04:00:00 5.2 C 5.65 g/m*3 3.34 C 8.1 km/h
893 25-12-2014 04:05:00 5.1 C 5.61 g/m*3 3.23 C 8.1 km/h
894 25-12-2014 04:10:00 5.2 C 5.58 g/m*3 3.82 C 6.4 km/h
895 25-12-2014 04:15:00 5.2 C 5.58 g/m*3 3.34 C 8.1 km/h
896 25-12-2014 04:20:00 5.1 C 5.68 g/m*3 5.1 C 4.8 km/h
897 25-12-2014 04:25:00 5.1 C 5.68 g/m*3 5.1 C 4.8 km/h
898 25-12-2014 04:30:00 4.9 C 5.6 g/m*3 3.48 C 6.4 km/h
899 25-12-2014 04:35:00 4.9 C 5.67 g/m*3 3.48 C 6.4 km/h
900 25-12-2014 04:40:00 4.8 C 5.63 g/m*3 4.8 C 4.8 km/h
Sensor: Nr:Datum:Temp:Abs-Feuchte:Windchill:Wind:
Aussen-T/F 901 25-12-2014 04:45:00 4.8 C 5.63 g/m*3 3.36 C 6.4 km/h
902 25-12-2014 04:50:00 4.8 C 5.63 g/m*3 4.8 C 4.8 km/h
903 25-12-2014 04:55:00 4.8 C 5.63 g/m*3 4.8 C 4.8 km/h
904 25-12-2014 05:00:00 4.8 C 5.63 g/m*3 2.87 C 8.1 km/h
905 25-12-2014 05:05:00 4.8 C 5.7 g/m*3 3.36 C 6.4 km/h
906 25-12-2014 05:10:00 4.8 C 5.7 g/m*3 3.36 C 6.4 km/h
907 25-12-2014 05:15:00 4.8 C 5.7 g/m*3 4.8 C 4.8 km/h
908 25-12-2014 05:20:00 4.7 C 5.66 g/m*3 2.76 C 8.1 km/h
909 25-12-2014 05:25:00 4.7 C 5.66 g/m*3 3.25 C 6.4 km/h
910 25-12-2014 05:30:00 4.7 C 5.66 g/m*3 3.25 C 6.4 km/h
911 25-12-2014 05:35:00 4.7 C 5.73 g/m*3 4.7 C 3.2 km/h
912 25-12-2014 05:40:00 4.6 C 5.69 g/m*3 4.6 C 4.8 km/h
913 25-12-2014 05:45:00 4.4 C 5.68 g/m*3 4.4 C 4.8 km/h
914 25-12-2014 05:50:00 4.4 C 5.62 g/m*3 4.4 C 4.8 km/h
915 25-12-2014 05:55:00 4.4 C 5.68 g/m*3 4.4 C 4.8 km/h
916 25-12-2014 06:00:00 4.3 C 5.58 g/m*3 2.78 C 6.4 km/h
917 25-12-2014 06:05:00 4.3 C 5.64 g/m*3 4.3 C 4.8 km/h
918 25-12-2014 06:10:00 4.4 C 5.62 g/m*3 4.4 C 4.8 km/h
919 25-12-2014 06:15:00 4.3 C 5.58 g/m*3 4.3 C 3.2 km/h
920 25-12-2014 06:20:00 4.2 C 5.61 g/m*3 4.2 C 3.2 km/h
921 25-12-2014 06:25:00 4.1 C 5.57 g/m*3 4.1 C 3.2 km/h
922 25-12-2014 06:30:00 4 C 5.59 g/m*3 2.44 C 6.4 km/h
923 25-12-2014 06:35:00 3.9 C 5.56 g/m*3 3.9 C 3.2 km/h
924 25-12-2014 06:40:00 3.8 C 5.58 g/m*3 3.8 C 3.2 km/h
925 25-12-2014 06:45:00 3.6 C 5.51 g/m*3 3.6 C 3.2 km/h
Sensor: Nr:Datum:Temp:Abs-Feuchte:Windchill:Wind:
Aussen-T/F 926 25-12-2014 06:50:00 3.5 C 5.53 g/m*3 3.5 C 4.8 km/h
927 25-12-2014 06:55:00 3.4 C 5.5 g/m*3 1.23 C 8.1 km/h
928 25-12-2014 07:00:00 3.4 C 5.5 g/m*3 1.75 C 6.4 km/h
929 25-12-2014 07:05:00 3.4 C 5.5 g/m*3 3.4 C 4.8 km/h
930 25-12-2014 07:10:00 3.5 C 5.53 g/m*3 3.5 C 4.8 km/h
931 25-12-2014 07:15:00 3.7 C 5.55 g/m*3 1.58 C 8.1 km/h
932 25-12-2014 07:20:00 3.6 C 5.51 g/m*3 3.6 C 3.2 km/h
933 25-12-2014 07:25:00 3.6 C 5.51 g/m*3 1.98 C 6.4 km/h
934 25-12-2014 07:30:00 3.7 C 5.55 g/m*3 2.09 C 6.4 km/h
935 25-12-2014 07:35:00 3.8 C 5.52 g/m*3 1.7 C 8.1 km/h
936 25-12-2014 07:40:00 3.8 C 5.52 g/m*3 1.7 C 8.1 km/h
937 25-12-2014 07:45:00 3.8 C 5.52 g/m*3 2.21 C 6.4 km/h
938 25-12-2014 07:50:00 3.8 C 5.52 g/m*3 0.94 C 11.3 km/h
939 25-12-2014 07:55:00 3.9 C 5.49 g/m*3 1.06 C 11.3 km/h
940 25-12-2014 08:00:00 4.1 C 5.5 g/m*3 2.05 C 8.1 km/h
941 25-12-2014 08:05:00 4.2 C 5.54 g/m*3 2.17 C 8.1 km/h
942 25-12-2014 08:10:00 4.1 C 5.5 g/m*3 2.05 C 8.1 km/h
943 25-12-2014 08:15:00 4.1 C 5.57 g/m*3 2.55 C 6.4 km/h
944 25-12-2014 08:20:00 4.2 C 5.54 g/m*3 0.36 C 17.7 km/h
945 25-12-2014 08:25:00 4.2 C 5.54 g/m*3 1.12 C 12.9 km/h
946 25-12-2014 08:30:00 4.3 C 5.51 g/m*3 0.72 C 16.1 km/h
947 25-12-2014 08:35:00 4.4 C 5.55 g/m*3 1.67 C 11.3 km/h
948 25-12-2014 08:40:00 4.4 C 5.55 g/m*3 1.09 C 14.5 km/h
949 25-12-2014 08:45:00 4.4 C 5.55 g/m*3 0.61 C 17.7 km/h
950 25-12-2014 08:50:00 4.3 C 5.51 g/m*3 1.89 C 9.7 km/h
Sensor: Nr:Datum:Temp:Abs-Feuchte:Windchill:Wind:
Aussen-T/F 951 25-12-2014 08:55:00 4.3 C 5.51 g/m*3 1.89 C 9.7 km/h
952 25-12-2014 09:00:00 4.2 C 5.54 g/m*3 1.43 C 11.3 km/h
953 25-12-2014 09:05:00 4.1 C 5.5 g/m*3 2.05 C 8.1 km/h
954 25-12-2014 09:10:00 4.1 C 5.5 g/m*3 1.65 C 9.7 km/h
955 25-12-2014 09:15:00 4.1 C 5.5 g/m*3 4.1 C 4.8 km/h
956 25-12-2014 10:10:00 4.6 C 6.62 g/m*3 2.25 C 9.7 km/h
957 25-12-2014 10:15:00 4.7 C 5.73 g/m*3 1.73 C 12.9 km/h
958 25-12-2014 10:20:00 4.9 C 5.74 g/m*3 2.61 C 9.7 km/h
959 25-12-2014 10:25:00 5.1 C 5.75 g/m*3 2.51 C 11.3 km/h
960 25-12-2014 10:30:00 5.2 C 5.78 g/m*3 2.63 C 11.3 km/h
961 25-12-2014 10:35:00 5.2 C 5.78 g/m*3 3.82 C 6.4 km/h
962 25-12-2014 10:40:00 5.3 C 5.82 g/m*3 2.46 C 12.9 km/h
963 25-12-2014 10:45:00 5.3 C 5.75 g/m*3 3.46 C 8.1 km/h
964 25-12-2014 10:50:00 5.4 C 5.79 g/m*3 2.58 C 12.9 km/h
965 25-12-2014 10:55:00 5.5 C 5.83 g/m*3 3.32 C 9.7 km/h
966 25-12-2014 11:00:00 5.5 C 5.83 g/m*3 3.7 C 8.1 km/h
967 25-12-2014 11:05:00 5.6 C 5.87 g/m*3 2.83 C 12.9 km/h
968 25-12-2014 11:10:00 5.6 C 5.87 g/m*3 3.11 C 11.3 km/h
969 25-12-2014 11:15:00 5.6 C 5.8 g/m*3 2.83 C 12.9 km/h
970 25-12-2014 11:20:00 5.6 C 5.8 g/m*3 2.11 C 17.7 km/h
971 25-12-2014 11:25:00 5.6 C 5.8 g/m*3 3.11 C 11.3 km/h
972 25-12-2014 11:30:00 5.6 C 5.8 g/m*3 3.44 C 9.7 km/h
973 25-12-2014 11:35:00 5.7 C 5.91 g/m*3 3.23 C 11.3 km/h
974 25-12-2014 11:40:00 5.8 C 5.87 g/m*3 3.68 C 9.7 km/h
975 25-12-2014 11:45:00 5.8 C 5.95 g/m*3 4.52 C 6.4 km/h
Sensor: Nr:Datum:Temp:Abs-Feuchte:Windchill:Wind:
Aussen-T/F 976 25-12-2014 11:50:00 5.8 C 5.95 g/m*3 3.36 C 11.3 km/h
977 25-12-2014 11:55:00 5.9 C 5.91 g/m*3 4.17 C 8.1 km/h
978 25-12-2014 12:00:00 6 C 5.95 g/m*3 2.82 C 16.1 km/h
979 25-12-2014 12:05:00 6 C 5.95 g/m*3 3.6 C 11.3 km/h
980 25-12-2014 12:10:00 6 C 5.95 g/m*3 3.6 C 11.3 km/h
981 25-12-2014 12:15:00 6 C 5.95 g/m*3 3.31 C 12.9 km/h
982 25-12-2014 12:20:00 6 C 5.95 g/m*3 3.6 C 11.3 km/h
983 25-12-2014 12:25:00 5.9 C 5.98 g/m*3 3.8 C 9.7 km/h
984 25-12-2014 12:30:00 6 C 5.95 g/m*3 4.28 C 8.1 km/h
985 25-12-2014 12:35:00 6 C 6.02 g/m*3 3.92 C 9.7 km/h
986 25-12-2014 12:40:00 6 C 6.02 g/m*3 4.75 C 6.4 km/h
987 25-12-2014 12:45:00 6 C 6.02 g/m*3 6 C 4.8 km/h
988 25-12-2014 12:50:00 5.9 C 6.06 g/m*3 3.48 C 11.3 km/h
989 25-12-2014 12:55:00 5.9 C 6.06 g/m*3 4.63 C 6.4 km/h
990 25-12-2014 13:00:00 5.9 C 6.13 g/m*3 3.48 C 11.3 km/h
991 25-12-2014 13:05:00 5.9 C 6.13 g/m*3 3.19 C 12.9 km/h
992 25-12-2014 13:10:00 5.9 C 6.13 g/m*3 3.8 C 9.7 km/h
993 25-12-2014 13:15:00 6 C 6.17 g/m*3 6 C 4.8 km/h
994 25-12-2014 13:20:00 6 C 6.17 g/m*3 4.28 C 8.1 km/h
995 25-12-2014 13:25:00 6.1 C 6.21 g/m*3 3.43 C 12.9 km/h
996 25-12-2014 13:30:00 6.2 C 6.18 g/m*3 4.15 C 9.7 km/h
997 25-12-2014 13:35:00 6.3 C 6.22 g/m*3 5.1 C 6.4 km/h
998 25-12-2014 13:40:00 6.3 C 6.22 g/m*3 4.64 C 8.1 km/h
999 25-12-2014 13:45:00 6.3 C 6.29 g/m*3 6.3 C 4.8 km/h
1000 25-12-2014 13:50:00 6.3 C 6.29 g/m*3 6.3 C 4.8 km/h
Sensor: Nr:Datum:Temp:Abs-Feuchte:Windchill:Wind:
Aussen-T/F 1001 25-12-2014 13:55:00 6.3 C 6.22 g/m*3 5.1 C 6.4 km/h
1002 25-12-2014 14:00:00 6.4 C 6.26 g/m*3 4.08 C 11.3 km/h
1003 25-12-2014 14:05:00 6.4 C 6.26 g/m*3 4.75 C 8.1 km/h
1004 25-12-2014 14:10:00 6.5 C 6.22 g/m*3 4.2 C 11.3 km/h
1005 25-12-2014 14:15:00 6.6 C 6.27 g/m*3 6.6 C 4.8 km/h
1006 25-12-2014 14:20:00 6.7 C 6.23 g/m*3 4.17 C 12.9 km/h
1007 25-12-2014 14:25:00 6.8 C 6.27 g/m*3 3.82 C 16.1 km/h
1008 25-12-2014 14:30:00 6.8 C 6.27 g/m*3 4.29 C 12.9 km/h
1009 25-12-2014 14:35:00 6.8 C 6.27 g/m*3 4.04 C 14.5 km/h
1010 25-12-2014 14:40:00 6.8 C 6.19 g/m*3 3.61 C 17.7 km/h
1011 25-12-2014 14:45:00 6.9 C 6.16 g/m*3 4.41 C 12.9 km/h
1012 25-12-2014 14:50:00 6.9 C 6.16 g/m*3 4.41 C 12.9 km/h
1013 25-12-2014 14:55:00 7 C 6.2 g/m*3 4.29 C 14.5 km/h
1014 25-12-2014 15:00:00 7 C 6.12 g/m*3 4.53 C 12.9 km/h
1015 25-12-2014 15:05:00 7 C 6.12 g/m*3 4.53 C 12.9 km/h
1016 25-12-2014 15:10:00 6.9 C 6.16 g/m*3 5.34 C 8.1 km/h
1017 25-12-2014 15:15:00 6.9 C 6.16 g/m*3 4.16 C 14.5 km/h
1018 25-12-2014 15:20:00 6.9 C 6.16 g/m*3 4.16 C 14.5 km/h
1019 25-12-2014 15:25:00 6.9 C 6.08 g/m*3 3.94 C 16.1 km/h
1020 25-12-2014 15:30:00 6.8 C 6.12 g/m*3 3.82 C 16.1 km/h
1021 25-12-2014 15:35:00 6.8 C 6.12 g/m*3 4.04 C 14.5 km/h
1022 25-12-2014 15:40:00 6.8 C 6.12 g/m*3 5.22 C 8.1 km/h
1023 25-12-2014 15:45:00 6.8 C 6.12 g/m*3 4.56 C 11.3 km/h
1024 25-12-2014 15:50:00 6.8 C 6.19 g/m*3 4.56 C 11.3 km/h
1025 25-12-2014 15:55:00 6.7 C 6.23 g/m*3 4.17 C 12.9 km/h
Sensor: Nr:Datum:Temp:Abs-Feuchte:Windchill:Wind:
Aussen-T/F 1026 25-12-2014 16:00:00 6.5 C 6.15 g/m*3 3.23 C 17.7 km/h
1027 25-12-2014 16:05:00 6.4 C 6.18 g/m*3 3.8 C 12.9 km/h
1028 25-12-2014 16:10:00 6.3 C 6.22 g/m*3 5.1 C 6.4 km/h
1029 25-12-2014 16:15:00 6.2 C 6.18 g/m*3 3.84 C 11.3 km/h
1030 25-12-2014 16:20:00 6.2 C 6.1 g/m*3 3.56 C 12.9 km/h
1031 25-12-2014 16:25:00 6.3 C 6.14 g/m*3 4.64 C 8.1 km/h
1032 25-12-2014 16:30:00 6.3 C 6.14 g/m*3 4.27 C 9.7 km/h
1033 25-12-2014 16:35:00 6.4 C 6.11 g/m*3 4.75 C 8.1 km/h
1034 25-12-2014 16:40:00 6.4 C 6.11 g/m*3 5.21 C 6.4 km/h
1035 25-12-2014 16:45:00 6.3 C 6.14 g/m*3 6.3 C 3.2 km/h
1036 25-12-2014 16:50:00 6.3 C 6.14 g/m*3 4.27 C 9.7 km/h
1037 25-12-2014 16:55:00 6.2 C 6.25 g/m*3 2.86 C 17.7 km/h
1038 25-12-2014 17:00:00 5.6 C 6.01 g/m*3 3.11 C 11.3 km/h
1039 25-12-2014 17:05:00 5.6 C 6.01 g/m*3 3.81 C 8.1 km/h
1040 25-12-2014 17:10:00 5.6 C 6.29 g/m*3 5.6 C 3.2 km/h
1041 25-12-2014 17:15:00 5.6 C 6.29 g/m*3 4.29 C 6.4 km/h
1042 25-12-2014 18:10:00 4.3 C 5.97 g/m*3 2.29 C 8.1 km/h
1043 25-12-2014 18:15:00 4.3 C 5.97 g/m*3 2.78 C 6.4 km/h
1044 25-12-2014 18:20:00 4.3 C 5.97 g/m*3 4.3 C 4.8 km/h
1045 25-12-2014 18:25:00 4.3 C 5.97 g/m*3 2.78 C 6.4 km/h
1046 25-12-2014 18:30:00 4.3 C 5.97 g/m*3 4.3 C 4.8 km/h
1047 25-12-2014 18:35:00 4.3 C 5.97 g/m*3 2.78 C 6.4 km/h
1048 25-12-2014 18:40:00 4.3 C 5.97 g/m*3 2.29 C 8.1 km/h
1049 25-12-2014 19:20:00 4.2 C 5.99 g/m*3 2.17 C 8.1 km/h
1050 25-12-2014 19:25:00 4.3 C 6.03 g/m*3 2.29 C 8.1 km/h
Sensor: Nr:Datum:Temp:Abs-Feuchte:Windchill:Wind:
Aussen-T/F 1051 25-12-2014 19:30:00 4.3 C 6.03 g/m*3 2.29 C 8.1 km/h
1052 25-12-2014 19:35:00 4.3 C 6.03 g/m*3 1.55 C 11.3 km/h
1053 25-12-2014 19:40:00 4.3 C 6.03 g/m*3 2.78 C 6.4 km/h
1054 25-12-2014 19:45:00 4.3 C 5.97 g/m*3 2.78 C 6.4 km/h
1055 25-12-2014 19:50:00 4.3 C 5.97 g/m*3 2.78 C 6.4 km/h
1056 25-12-2014 19:55:00 4.4 C 6.01 g/m*3 2.4 C 8.1 km/h
1057 25-12-2014 20:00:00 4.4 C 6.01 g/m*3 2.4 C 8.1 km/h
1058 25-12-2014 20:05:00 4.4 C 6.01 g/m*3 2.4 C 8.1 km/h
1059 25-12-2014 20:10:00 4.4 C 6.01 g/m*3 2.01 C 9.7 km/h
1060 25-12-2014 20:15:00 4.4 C 6.01 g/m*3 4.4 C 4.8 km/h
1061 25-12-2014 20:20:00 4.4 C 6.01 g/m*3 4.4 C 4.8 km/h
1062 25-12-2014 22:55:00 2.6 C 5.79 g/m*3 2.6 C 0 km/h
1063 25-12-2014 23:00:00 2.6 C 5.79 g/m*3 2.6 C 0 km/h
1064 25-12-2014 23:05:00 2.6 C 5.79 g/m*3 2.6 C 3.2 km/h
1065 25-12-2014 23:45:00 1.9 C 5.3 g/m*3 1.9 C 1.6 km/h
1066 25-12-2014 23:50:00 1.8 C 5.26 g/m*3 1.8 C 0 km/h
1067 25-12-2014 23:55:00 1.8 C 5.26 g/m*3 1.8 C 1.6 km/h
1068 26-12-2014 00:00:00 1.9 C 5.35 g/m*3 1.9 C 1.6 km/h
1069 26-12-2014 00:05:00 2.1 C 5.43 g/m*3 2.1 C 1.6 km/h
1070 26-12-2014 00:10:00 2.1 C 5.43 g/m*3 2.1 C 0 km/h
1071 26-12-2014 00:15:00 2.1 C 5.43 g/m*3 2.1 C 0 km/h
1072 26-12-2014 00:20:00 2.1 C 5.43 g/m*3 2.1 C 1.6 km/h
1073 26-12-2014 00:25:00 2.1 C 5.43 g/m*3 2.1 C 0 km/h
1074 26-12-2014 00:30:00 2.1 C 5.43 g/m*3 2.1 C 0 km/h
1075 26-12-2014 00:35:00 2.1 C 5.43 g/m*3 2.1 C 1.6 km/h
Sensor: Nr:Datum:Temp:Abs-Feuchte:Windchill:Wind:
Aussen-T/F 1076 26-12-2014 00:40:00 2.1 C 5.43 g/m*3 2.1 C 0 km/h
1077 26-12-2014 00:45:00 2.2 C 5.46 g/m*3 2.2 C 0 km/h
1078 26-12-2014 00:50:00 2.2 C 5.46 g/m*3 2.2 C 0 km/h
1079 26-12-2014 00:55:00 2.2 C 5.46 g/m*3 2.2 C 0 km/h
1080 26-12-2014 01:00:00 2.2 C 5.46 g/m*3 2.2 C 0 km/h
1081 26-12-2014 01:05:00 2.2 C 5.46 g/m*3 2.2 C 0 km/h
1082 26-12-2014 01:10:00 2.2 C 5.46 g/m*3 2.2 C 0 km/h
1083 26-12-2014 01:15:00 2.2 C 5.46 g/m*3 2.2 C 0 km/h
1084 26-12-2014 01:20:00 2.3 C 5.5 g/m*3 2.3 C 0 km/h
1085 26-12-2014 01:25:00 2.3 C 5.5 g/m*3 0.47 C 6.4 km/h
1086 26-12-2014 01:30:00 2.3 C 5.5 g/m*3 2.3 C 3.2 km/h
1087 26-12-2014 01:35:00 2.2 C 5.46 g/m*3 2.2 C 4.8 km/h
1088 26-12-2014 01:40:00 2.2 C 5.46 g/m*3 2.2 C 4.8 km/h
1089 26-12-2014 01:45:00 2.2 C 5.46 g/m*3 2.2 C 1.6 km/h
1090 26-12-2014 05:40:00 3.2 C 6.03 g/m*3 3.2 C 1.6 km/h
1091 26-12-2014 05:45:00 3.2 C 6.03 g/m*3 3.2 C 3.2 km/h
1092 26-12-2014 05:50:00 3.2 C 6.03 g/m*3 3.2 C 4.8 km/h
1093 26-12-2014 10:30:00 3.2 C 6.03 g/m*3 3.2 C 4.8 km/h
1094 26-12-2014 10:35:00 3.2 C 6.03 g/m*3 3.2 C 4.8 km/h
1095 26-12-2014 14:05:00 3.5 C 5.84 g/m*3 3.5 C 0 km/h
1096 26-12-2014 14:10:00 3.6 C 5.88 g/m*3 3.6 C 0 km/h
1097 26-12-2014 14:15:00 3.6 C 5.88 g/m*3 3.6 C 0 km/h
1098 26-12-2014 14:20:00 3.6 C 5.88 g/m*3 3.6 C 0 km/h
1099 26-12-2014 14:40:00 3.7 C 5.92 g/m*3 3.7 C 0 km/h
1100 26-12-2014 14:45:00 3.7 C 5.98 g/m*3 3.7 C 0 km/h
Sensor: Nr:Datum:Temp:Abs-Feuchte:Windchill:Wind:
Aussen-T/F 1101 26-12-2014 14:50:00 3.8 C 6.02 g/m*3 3.8 C 0 km/h
1102 26-12-2014 14:55:00 3.8 C 6.02 g/m*3 3.8 C 0 km/h
1103 26-12-2014 15:00:00 3.8 C 6.02 g/m*3 3.8 C 0 km/h
1104 26-12-2014 15:05:00 3.8 C 6.02 g/m*3 3.8 C 1.6 km/h
1105 26-12-2014 15:10:00 3.8 C 6.02 g/m*3 3.8 C 1.6 km/h
1106 26-12-2014 15:15:00 3.7 C 5.98 g/m*3 3.7 C 1.6 km/h
1107 26-12-2014 15:20:00 3.7 C 5.98 g/m*3 3.7 C 0 km/h
1108 26-12-2014 15:25:00 3.7 C 5.98 g/m*3 3.7 C 0 km/h
1109 26-12-2014 15:30:00 3.7 C 5.98 g/m*3 3.7 C 0 km/h
1110 26-12-2014 15:35:00 3.7 C 5.98 g/m*3 3.7 C 0 km/h
1111 26-12-2014 15:40:00 3.7 C 5.98 g/m*3 3.7 C 0 km/h
1112 26-12-2014 15:45:00 3.7 C 5.98 g/m*3 3.7 C 0 km/h
1113 26-12-2014 15:50:00 3.7 C 5.98 g/m*3 3.7 C 0 km/h
1114 26-12-2014 15:55:00 3.6 C 5.94 g/m*3 3.6 C 0 km/h
1115 26-12-2014 16:00:00 3.5 C 5.9 g/m*3 3.5 C 0 km/h
1116 26-12-2014 16:05:00 3.4 C 5.86 g/m*3 3.4 C 0 km/h
1117 26-12-2014 16:10:00 3.3 C 5.82 g/m*3 3.3 C 0 km/h
1118 26-12-2014 16:15:00 3.2 C 5.79 g/m*3 3.2 C 0 km/h
1119 26-12-2014 16:20:00 3.1 C 5.75 g/m*3 3.1 C 0 km/h
1120 26-12-2014 16:25:00 3.1 C 5.75 g/m*3 3.1 C 0 km/h
1121 26-12-2014 16:30:00 3 C 5.71 g/m*3 3 C 0 km/h
1122 26-12-2014 16:35:00 2.9 C 5.67 g/m*3 2.9 C 1.6 km/h
1123 26-12-2014 16:40:00 2.9 C 5.67 g/m*3 2.9 C 1.6 km/h
1124 26-12-2014 16:45:00 2.9 C 5.67 g/m*3 2.9 C 0 km/h
1125 26-12-2014 16:50:00 2.8 C 5.63 g/m*3 2.8 C 0 km/h
Sensor: Nr:Datum:Temp:Abs-Feuchte:Windchill:Wind:
Aussen-T/F 1126 26-12-2014 16:55:00 2.8 C 5.69 g/m*3 2.8 C 0 km/h
1127 26-12-2014 17:00:00 2.9 C 5.73 g/m*3 2.9 C 0 km/h
1128 26-12-2014 17:05:00 2.9 C 5.73 g/m*3 2.9 C 0 km/h
1129 26-12-2014 17:10:00 2.9 C 5.73 g/m*3 2.9 C 0 km/h
1130 26-12-2014 17:15:00 2.9 C 5.73 g/m*3 2.9 C 0 km/h
1131 26-12-2014 17:20:00 2.9 C 5.73 g/m*3 2.9 C 1.6 km/h
1132 26-12-2014 17:25:00 3.1 C 5.81 g/m*3 3.1 C 1.6 km/h
1133 26-12-2014 17:30:00 3.1 C 5.81 g/m*3 3.1 C 0 km/h
1134 26-12-2014 17:35:00 2.9 C 5.73 g/m*3 2.9 C 0 km/h
1135 26-12-2014 17:40:00 2.7 C 5.65 g/m*3 2.7 C 0 km/h
1136 26-12-2014 17:45:00 2.4 C 5.48 g/m*3 2.4 C 0 km/h
1137 26-12-2014 17:50:00 2.3 C 5.44 g/m*3 2.3 C 0 km/h
1138 26-12-2014 17:55:00 2.1 C 5.37 g/m*3 2.1 C 0 km/h
1139 26-12-2014 18:00:00 2 C 5.33 g/m*3 2 C 0 km/h
1140 26-12-2014 18:05:00 1.9 C 5.35 g/m*3 1.9 C 0 km/h
1141 26-12-2014 18:10:00 1.8 C 5.32 g/m*3 1.8 C 0 km/h
1142 26-12-2014 18:15:00 1.7 C 5.23 g/m*3 1.7 C 0 km/h
1143 26-12-2014 18:20:00 1.7 C 5.28 g/m*3 1.7 C 0 km/h
1144 26-12-2014 18:25:00 1.6 C 5.25 g/m*3 1.6 C 0 km/h
1145 26-12-2014 18:30:00 1.6 C 5.25 g/m*3 1.6 C 0 km/h
1146 26-12-2014 18:35:00 1.6 C 5.25 g/m*3 1.6 C 0 km/h
1147 26-12-2014 18:40:00 1.6 C 5.25 g/m*3 1.6 C 0 km/h
1148 26-12-2014 18:45:00 1.5 C 5.21 g/m*3 1.5 C 0 km/h
1149 26-12-2014 18:50:00 1.5 C 5.21 g/m*3 1.5 C 0 km/h
1150 26-12-2014 18:55:00 1.6 C 5.25 g/m*3 1.6 C 0 km/h
Sensor: Nr:Datum:Temp:Abs-Feuchte:Windchill:Wind:
Aussen-T/F 1151 26-12-2014 19:00:00 1.6 C 5.25 g/m*3 1.6 C 0 km/h
1152 26-12-2014 19:05:00 1.5 C 5.21 g/m*3 1.5 C 0 km/h
1153 26-12-2014 19:10:00 1.4 C 5.17 g/m*3 1.4 C 0 km/h
1154 26-12-2014 19:15:00 1.3 C 5.14 g/m*3 1.3 C 0 km/h
1155 26-12-2014 19:20:00 1.3 C 5.14 g/m*3 1.3 C 0 km/h
1156 26-12-2014 19:25:00 1.3 C 5.14 g/m*3 1.3 C 0 km/h
1157 26-12-2014 19:30:00 1.3 C 5.14 g/m*3 1.3 C 1.6 km/h
1158 26-12-2014 19:35:00 1.3 C 5.14 g/m*3 1.3 C 0 km/h
1159 26-12-2014 19:40:00 1.4 C 5.17 g/m*3 1.4 C 0 km/h
1160 26-12-2014 19:45:00 1.4 C 5.17 g/m*3 1.4 C 1.6 km/h
1161 26-12-2014 19:50:00 1.3 C 5.14 g/m*3 1.3 C 0 km/h
1162 26-12-2014 19:55:00 1.3 C 5.14 g/m*3 1.3 C 0 km/h
1163 26-12-2014 20:00:00 1.3 C 5.14 g/m*3 1.3 C 0 km/h
1164 26-12-2014 20:05:00 1.3 C 5.14 g/m*3 1.3 C 0 km/h
1165 26-12-2014 20:10:00 1.3 C 5.14 g/m*3 1.3 C 0 km/h
1166 26-12-2014 20:15:00 1.4 C 5.17 g/m*3 1.4 C 1.6 km/h
1167 26-12-2014 20:20:00 1.6 C 5.3 g/m*3 1.6 C 0 km/h
1168 26-12-2014 20:25:00 1.6 C 5.3 g/m*3 1.6 C 0 km/h
1169 26-12-2014 20:30:00 1.6 C 5.3 g/m*3 1.6 C 1.6 km/h
1170 26-12-2014 20:35:00 1.6 C 5.3 g/m*3 1.6 C 1.6 km/h
1171 26-12-2014 20:40:00 1.6 C 5.3 g/m*3 1.6 C 3.2 km/h
1172 26-12-2014 20:45:00 1.6 C 5.3 g/m*3 1.6 C 1.6 km/h
1173 26-12-2014 20:50:00 1.5 C 5.26 g/m*3 1.5 C 1.6 km/h
1174 26-12-2014 20:55:00 1.5 C 5.26 g/m*3 1.5 C 1.6 km/h
1175 26-12-2014 21:00:00 1.6 C 5.3 g/m*3 1.6 C 1.6 km/h
Sensor: Nr:Datum:Temp:Abs-Feuchte:Windchill:Wind:
Aussen-T/F 1176 26-12-2014 21:05:00 1.6 C 5.3 g/m*3 1.6 C 1.6 km/h
1177 26-12-2014 21:10:00 1.7 C 5.34 g/m*3 1.7 C 1.6 km/h
1178 26-12-2014 21:15:00 1.7 C 5.34 g/m*3 1.7 C 3.2 km/h
1179 26-12-2014 21:20:00 1.7 C 5.34 g/m*3 1.7 C 1.6 km/h
1180 26-12-2014 21:25:00 1.8 C 5.37 g/m*3 1.8 C 3.2 km/h
1181 26-12-2014 21:30:00 1.8 C 5.37 g/m*3 1.8 C 1.6 km/h
1182 26-12-2014 21:35:00 2 C 5.45 g/m*3 2 C 3.2 km/h
1183 26-12-2014 21:40:00 2.1 C 5.48 g/m*3 2.1 C 1.6 km/h
1184 26-12-2014 21:45:00 2.2 C 5.52 g/m*3 2.2 C 3.2 km/h
1185 26-12-2014 21:50:00 2.2 C 5.52 g/m*3 2.2 C 0 km/h
1186 26-12-2014 21:55:00 2.2 C 5.52 g/m*3 2.2 C 0 km/h
1187 26-12-2014 22:00:00 2.2 C 5.52 g/m*3 2.2 C 0 km/h
1188 26-12-2014 22:05:00 2.2 C 5.52 g/m*3 2.2 C 1.6 km/h
1189 26-12-2014 22:10:00 2.2 C 5.52 g/m*3 2.2 C 0 km/h
1190 26-12-2014 22:15:00 2.1 C 5.48 g/m*3 2.1 C 3.2 km/h
1191 26-12-2014 22:20:00 2.1 C 5.48 g/m*3 2.1 C 1.6 km/h
1192 26-12-2014 22:25:00 2.1 C 5.48 g/m*3 2.1 C 0 km/h
1193 26-12-2014 22:30:00 2.1 C 5.48 g/m*3 2.1 C 0 km/h
1194 26-12-2014 22:35:00 2.1 C 5.48 g/m*3 2.1 C 0 km/h
1195 26-12-2014 22:40:00 2 C 5.45 g/m*3 2 C 0 km/h
1196 26-12-2014 22:45:00 2 C 5.45 g/m*3 2 C 0 km/h
1197 26-12-2014 22:50:00 1.9 C 5.41 g/m*3 1.9 C 0 km/h
1198 26-12-2014 22:55:00 1.9 C 5.41 g/m*3 1.9 C 0 km/h
1199 26-12-2014 23:00:00 1.9 C 5.41 g/m*3 1.9 C 0 km/h
1200 26-12-2014 23:05:00 1.9 C 5.41 g/m*3 1.9 C 0 km/h
Sensor: Nr:Datum:Temp:Abs-Feuchte:Windchill:Wind:
Aussen-T/F 1201 26-12-2014 23:10:00 1.8 C 5.37 g/m*3 1.8 C 0 km/h
1202 26-12-2014 23:15:00 1.8 C 5.37 g/m*3 1.8 C 0 km/h
1203 26-12-2014 23:20:00 1.8 C 5.37 g/m*3 1.8 C 0 km/h
1204 26-12-2014 23:25:00 1.8 C 5.37 g/m*3 1.8 C 0 km/h
1205 26-12-2014 23:30:00 1.8 C 5.37 g/m*3 1.8 C 0 km/h
1206 26-12-2014 23:35:00 1.8 C 5.37 g/m*3 1.8 C 0 km/h
1207 26-12-2014 23:40:00 1.7 C 5.34 g/m*3 1.7 C 0 km/h
1208 26-12-2014 23:45:00 1.7 C 5.34 g/m*3 1.7 C 0 km/h
1209 26-12-2014 23:50:00 1.8 C 5.37 g/m*3 1.8 C 3.2 km/h
1210 26-12-2014 23:55:00 1.8 C 5.37 g/m*3 1.8 C 0 km/h
1211 27-12-2014 00:00:00 1.8 C 5.37 g/m*3 1.8 C 3.2 km/h
1212 27-12-2014 00:05:00 1.8 C 5.37 g/m*3 1.8 C 0 km/h
1213 27-12-2014 00:10:00 1.8 C 5.37 g/m*3 1.8 C 0 km/h
1214 27-12-2014 00:15:00 1.8 C 5.37 g/m*3 1.8 C 0 km/h
1215 27-12-2014 00:20:00 1.8 C 5.37 g/m*3 1.8 C 1.6 km/h
1216 27-12-2014 00:25:00 1.8 C 5.37 g/m*3 1.8 C 0 km/h
1217 27-12-2014 00:30:00 1.8 C 5.32 g/m*3 1.8 C 0 km/h
1218 27-12-2014 00:35:00 1.8 C 5.32 g/m*3 1.8 C 0 km/h
1219 27-12-2014 00:40:00 1.8 C 5.32 g/m*3 1.8 C 0 km/h
1220 27-12-2014 00:45:00 1.8 C 5.32 g/m*3 1.8 C 1.6 km/h
1221 27-12-2014 00:50:00 1.8 C 5.37 g/m*3 1.8 C 0 km/h
1222 27-12-2014 00:55:00 1.8 C 5.32 g/m*3 1.8 C 1.6 km/h
1223 27-12-2014 01:00:00 1.7 C 5.28 g/m*3 1.7 C 0 km/h
1224 27-12-2014 01:05:00 1.7 C 5.28 g/m*3 1.7 C 0 km/h
1225 27-12-2014 01:10:00 1.7 C 5.28 g/m*3 1.7 C 3.2 km/h
Sensor: Nr:Datum:Temp:Abs-Feuchte:Windchill:Wind:
Aussen-T/F 1226 27-12-2014 01:15:00 1.7 C 5.28 g/m*3 1.7 C 1.6 km/h
1227 27-12-2014 01:20:00 1.7 C 5.28 g/m*3 1.7 C 0 km/h
1228 27-12-2014 01:25:00 1.7 C 5.28 g/m*3 1.7 C 3.2 km/h
1229 27-12-2014 01:30:00 1.7 C 5.28 g/m*3 1.7 C 3.2 km/h
1230 27-12-2014 01:35:00 1.7 C 5.34 g/m*3 1.7 C 3.2 km/h
1231 27-12-2014 01:40:00 1.7 C 5.34 g/m*3 1.7 C 1.6 km/h
1232 27-12-2014 01:45:00 1.7 C 5.34 g/m*3 1.7 C 0 km/h
1233 27-12-2014 01:50:00 1.7 C 5.28 g/m*3 1.7 C 1.6 km/h
1234 27-12-2014 01:55:00 1.8 C 5.37 g/m*3 1.8 C 3.2 km/h
1235 27-12-2014 02:00:00 1.8 C 5.37 g/m*3 1.8 C 3.2 km/h
1236 27-12-2014 02:05:00 1.8 C 5.32 g/m*3 1.8 C 0 km/h
1237 27-12-2014 02:10:00 1.8 C 5.37 g/m*3 1.8 C 1.6 km/h
1238 27-12-2014 02:15:00 1.8 C 5.37 g/m*3 1.8 C 0 km/h
1239 27-12-2014 02:20:00 1.8 C 5.37 g/m*3 1.8 C 0 km/h
1240 27-12-2014 02:25:00 1.8 C 5.37 g/m*3 1.8 C 3.2 km/h
1241 27-12-2014 02:30:00 1.9 C 5.41 g/m*3 1.9 C 1.6 km/h
1242 27-12-2014 02:35:00 1.9 C 5.41 g/m*3 1.9 C 1.6 km/h
1243 27-12-2014 02:40:00 1.9 C 5.41 g/m*3 1.9 C 4.8 km/h
1244 27-12-2014 02:45:00 1.9 C 5.35 g/m*3 1.9 C 4.8 km/h
1245 27-12-2014 02:50:00 1.9 C 5.35 g/m*3 1.9 C 1.6 km/h
1246 27-12-2014 02:55:00 1.9 C 5.35 g/m*3 1.9 C 0 km/h
1247 27-12-2014 03:00:00 1.9 C 5.35 g/m*3 1.9 C 1.6 km/h
1248 27-12-2014 03:05:00 1.9 C 5.35 g/m*3 1.9 C 0 km/h
1249 27-12-2014 03:10:00 2 C 5.39 g/m*3 2 C 0 km/h
1250 27-12-2014 03:15:00 1.9 C 5.35 g/m*3 1.9 C 3.2 km/h
Sensor: Nr:Datum:Temp:Abs-Feuchte:Windchill:Wind:
Aussen-T/F 1251 27-12-2014 03:20:00 1.9 C 5.35 g/m*3 1.9 C 3.2 km/h
1252 27-12-2014 03:25:00 1.9 C 5.35 g/m*3 1.9 C 1.6 km/h
1253 27-12-2014 03:30:00 2 C 5.39 g/m*3 2 C 1.6 km/h
1254 27-12-2014 03:35:00 2 C 5.39 g/m*3 2 C 0 km/h
1255 27-12-2014 03:40:00 2.1 C 5.43 g/m*3 2.1 C 0 km/h
1256 27-12-2014 03:45:00 2.1 C 5.43 g/m*3 2.1 C 0 km/h
1257 27-12-2014 03:50:00 2.1 C 5.43 g/m*3 2.1 C 1.6 km/h
1258 27-12-2014 03:55:00 2.1 C 5.43 g/m*3 2.1 C 1.6 km/h
1259 27-12-2014 04:00:00 2.2 C 5.46 g/m*3 2.2 C 3.2 km/h
1260 27-12-2014 04:05:00 2.2 C 5.46 g/m*3 2.2 C 1.6 km/h
1261 27-12-2014 04:10:00 2.2 C 5.46 g/m*3 2.2 C 0 km/h
1262 27-12-2014 04:15:00 2.2 C 5.46 g/m*3 2.2 C 4.8 km/h
1263 27-12-2014 04:20:00 2.3 C 5.5 g/m*3 2.3 C 4.8 km/h
1264 27-12-2014 04:25:00 2.3 C 5.5 g/m*3 2.3 C 3.2 km/h
1265 27-12-2014 04:30:00 2.3 C 5.5 g/m*3 2.3 C 1.6 km/h
1266 27-12-2014 05:45:00 1.8 C 5.21 g/m*3 1.8 C 3.2 km/h
1267 27-12-2014 05:50:00 1.8 C 5.21 g/m*3 -0.1 C 6.4 km/h
1268 27-12-2014 05:55:00 1.8 C 5.21 g/m*3 -2.11 C 14.5 km/h
1269 27-12-2014 06:00:00 1.8 C 5.21 g/m*3 1.8 C 4.8 km/h
1270 27-12-2014 06:05:00 1.8 C 5.21 g/m*3 1.8 C 4.8 km/h
1271 27-12-2014 06:10:00 1.8 C 5.21 g/m*3 1.8 C 4.8 km/h
1272 27-12-2014 06:15:00 1.8 C 5.21 g/m*3 1.8 C 4.8 km/h
1273 27-12-2014 06:20:00 1.8 C 5.21 g/m*3 1.8 C 3.2 km/h
1274 27-12-2014 06:25:00 1.8 C 5.21 g/m*3 -1.09 C 9.7 km/h
1275 27-12-2014 06:30:00 1.8 C 5.21 g/m*3 -0.1 C 6.4 km/h
Sensor: Nr:Datum:Temp:Abs-Feuchte:Windchill:Wind:
Aussen-T/F 1276 27-12-2014 06:50:00 1.7 C 5.17 g/m*3 -0.22 C 6.4 km/h
1277 27-12-2014 06:55:00 1.6 C 5.14 g/m*3 -0.89 C 8.1 km/h
1278 27-12-2014 07:00:00 1.6 C 5.14 g/m*3 -0.89 C 8.1 km/h
1279 27-12-2014 07:05:00 1.6 C 5.14 g/m*3 -1.33 C 9.7 km/h
1280 27-12-2014 07:10:00 1.6 C 5.14 g/m*3 -0.89 C 8.1 km/h
1281 27-12-2014 07:30:00 1.4 C 5.07 g/m*3 -0.56 C 6.4 km/h
1282 27-12-2014 07:35:00 1.3 C 5.03 g/m*3 -1.69 C 9.7 km/h
1283 27-12-2014 07:40:00 1.3 C 5.03 g/m*3 -1.69 C 9.7 km/h
1284 27-12-2014 07:45:00 1.3 C 5.03 g/m*3 -2.07 C 11.3 km/h
1285 27-12-2014 07:50:00 1.3 C 5.03 g/m*3 -0.68 C 6.4 km/h
1286 27-12-2014 07:55:00 1.3 C 5.03 g/m*3 -2.41 C 12.9 km/h
1287 27-12-2014 08:00:00 1.3 C 5.03 g/m*3 -2.41 C 12.9 km/h
1288 27-12-2014 08:05:00 1.3 C 5.03 g/m*3 -2.07 C 11.3 km/h
1289 27-12-2014 08:10:00 1.3 C 5.03 g/m*3 -2.41 C 12.9 km/h
1290 27-12-2014 09:05:00 1.3 C 4.98 g/m*3 -1.69 C 9.7 km/h
1291 27-12-2014 09:10:00 1.3 C 5.03 g/m*3 -1.24 C 8.1 km/h
1292 27-12-2014 09:15:00 1.2 C 5 g/m*3 -2.19 C 11.3 km/h
1293 27-12-2014 09:20:00 1.2 C 5 g/m*3 -1.36 C 8.1 km/h
1294 27-12-2014 09:25:00 1.1 C 4.96 g/m*3 -0.91 C 6.4 km/h
1295 27-12-2014 09:30:00 1.2 C 5 g/m*3 -0.8 C 6.4 km/h
1296 27-12-2014 09:35:00 1.2 C 5.05 g/m*3 -1.8 C 9.7 km/h
1297 27-12-2014 09:40:00 1.2 C 5 g/m*3 -1.36 C 8.1 km/h
1298 27-12-2014 09:45:00 1.2 C 5 g/m*3 -1.8 C 9.7 km/h
1299 27-12-2014 09:50:00 1.2 C 5 g/m*3 -1.36 C 8.1 km/h
1300 27-12-2014 09:55:00 1.3 C 5.03 g/m*3 1.3 C 4.8 km/h
Sensor: Nr:Datum:Temp:Abs-Feuchte:Windchill:Wind:
Aussen-T/F 1301 27-12-2014 10:00:00 1.3 C 5.03 g/m*3 1.3 C 4.8 km/h
1302 27-12-2014 10:05:00 1.3 C 5.03 g/m*3 -1.24 C 8.1 km/h
1303 27-12-2014 10:10:00 1.3 C 5.03 g/m*3 -1.24 C 8.1 km/h
1304 27-12-2014 10:15:00 1.3 C 5.03 g/m*3 -0.68 C 6.4 km/h
1305 27-12-2014 10:20:00 1.3 C 5.03 g/m*3 1.3 C 4.8 km/h
1306 27-12-2014 10:25:00 1.3 C 5.03 g/m*3 1.3 C 4.8 km/h
1307 27-12-2014 10:30:00 1.3 C 5.09 g/m*3 -1.24 C 8.1 km/h
1308 27-12-2014 10:35:00 1.3 C 5.09 g/m*3 -0.68 C 6.4 km/h
1309 27-12-2014 10:40:00 1.4 C 5.12 g/m*3 -0.56 C 6.4 km/h
1310 27-12-2014 10:45:00 1.4 C 5.12 g/m*3 -1.12 C 8.1 km/h
1311 27-12-2014 10:50:00 1.4 C 5.12 g/m*3 1.4 C 4.8 km/h
1312 27-12-2014 10:55:00 1.5 C 5.16 g/m*3 -1.45 C 9.7 km/h
1313 27-12-2014 11:00:00 1.5 C 5.16 g/m*3 -0.45 C 6.4 km/h
1314 27-12-2014 11:05:00 1.5 C 5.16 g/m*3 -1.01 C 8.1 km/h
1315 27-12-2014 11:10:00 1.6 C 5.19 g/m*3 -0.33 C 6.4 km/h
1316 27-12-2014 11:15:00 1.6 C 5.14 g/m*3 -0.33 C 6.4 km/h
1317 27-12-2014 11:20:00 1.6 C 5.14 g/m*3 -0.89 C 8.1 km/h
1318 27-12-2014 11:25:00 1.6 C 5.14 g/m*3 -1.33 C 9.7 km/h
1319 27-12-2014 12:05:00 1.3 C 5.09 g/m*3 1.3 C 4.8 km/h
1320 27-12-2014 12:10:00 1.3 C 5.09 g/m*3 -1.24 C 8.1 km/h
1321 27-12-2014 12:15:00 1.3 C 5.09 g/m*3 1.3 C 3.2 km/h
1322 27-12-2014 12:20:00 1.3 C 5.09 g/m*3 -1.69 C 9.7 km/h
1323 27-12-2014 12:25:00 1.3 C 5.09 g/m*3 -0.68 C 6.4 km/h
1324 27-12-2014 12:30:00 1.3 C 5.09 g/m*3 -1.24 C 8.1 km/h
1325 27-12-2014 12:35:00 1.3 C 5.09 g/m*3 1.3 C 4.8 km/h
Sensor: Nr:Datum:Temp:Abs-Feuchte:Windchill:Wind:
Aussen-T/F 1326 27-12-2014 12:40:00 1.3 C 5.09 g/m*3 1.3 C 4.8 km/h
1327 27-12-2014 12:45:00 1.3 C 5.09 g/m*3 -1.24 C 8.1 km/h
1328 27-12-2014 12:50:00 1.5 C 5.16 g/m*3 -1.01 C 8.1 km/h
1329 27-12-2014 12:55:00 1.6 C 5.19 g/m*3 1.6 C 4.8 km/h
1330 27-12-2014 13:00:00 1.6 C 5.19 g/m*3 1.6 C 4.8 km/h
1331 27-12-2014 13:40:00 1.9 C 5.24 g/m*3 -0.54 C 8.1 km/h
1332 27-12-2014 13:45:00 1.9 C 5.24 g/m*3 0.01 C 6.4 km/h
1333 27-12-2014 13:50:00 1.9 C 5.24 g/m*3 1.9 C 3.2 km/h
1334 27-12-2014 13:55:00 1.9 C 5.24 g/m*3 1.9 C 4.8 km/h
1335 27-12-2014 14:00:00 1.9 C 5.24 g/m*3 1.9 C 4.8 km/h
1336 27-12-2014 14:20:00 2.1 C 5.31 g/m*3 2.1 C 3.2 km/h
1337 27-12-2014 14:25:00 2.1 C 5.31 g/m*3 2.1 C 1.6 km/h
1338 27-12-2014 14:30:00 2.1 C 5.31 g/m*3 2.1 C 1.6 km/h
1339 27-12-2014 14:35:00 2.2 C 5.35 g/m*3 2.2 C 1.6 km/h
1340 27-12-2014 14:40:00 2.2 C 5.35 g/m*3 2.2 C 1.6 km/h
1341 27-12-2014 14:45:00 2.2 C 5.35 g/m*3 2.2 C 1.6 km/h
1342 27-12-2014 14:50:00 2.2 C 5.29 g/m*3 2.2 C 3.2 km/h
1343 27-12-2014 14:55:00 2.2 C 5.29 g/m*3 2.2 C 1.6 km/h
1344 27-12-2014 15:00:00 2.2 C 5.29 g/m*3 -0.18 C 8.1 km/h
1345 27-12-2014 15:05:00 2.2 C 5.29 g/m*3 2.2 C 1.6 km/h
1346 27-12-2014 15:10:00 2.3 C 5.33 g/m*3 2.3 C 4.8 km/h
1347 27-12-2014 15:15:00 2.3 C 5.33 g/m*3 2.3 C 3.2 km/h
1348 27-12-2014 15:20:00 2.3 C 5.33 g/m*3 -0.07 C 8.1 km/h
1349 27-12-2014 15:25:00 2.3 C 5.33 g/m*3 2.3 C 1.6 km/h
1350 27-12-2014 15:30:00 2.3 C 5.33 g/m*3 2.3 C 3.2 km/h
Sensor: Nr:Datum:Temp:Abs-Feuchte:Windchill:Wind:
Aussen-T/F 1351 27-12-2014 15:35:00 2.1 C 5.26 g/m*3 2.1 C 3.2 km/h
1352 27-12-2014 15:40:00 2.1 C 5.26 g/m*3 0.24 C 6.4 km/h
1353 27-12-2014 15:45:00 2.1 C 5.26 g/m*3 2.1 C 4.8 km/h
1354 27-12-2014 15:50:00 1.9 C 5.19 g/m*3 1.9 C 4.8 km/h
1355 27-12-2014 15:55:00 1.8 C 5.15 g/m*3 1.8 C 4.8 km/h
1356 27-12-2014 16:00:00 1.8 C 5.21 g/m*3 -0.1 C 6.4 km/h
1357 27-12-2014 16:05:00 1.8 C 5.21 g/m*3 1.8 C 4.8 km/h
1358 27-12-2014 16:10:00 1.7 C 5.17 g/m*3 -0.77 C 8.1 km/h
1359 27-12-2014 16:15:00 1.7 C 5.17 g/m*3 -1.59 C 11.3 km/h
1360 27-12-2014 16:20:00 1.7 C 5.17 g/m*3 -0.22 C 6.4 km/h
1361 27-12-2014 16:25:00 1.7 C 5.17 g/m*3 1.7 C 4.8 km/h
1362 27-12-2014 16:30:00 1.7 C 5.17 g/m*3 -0.22 C 6.4 km/h
1363 27-12-2014 16:35:00 1.7 C 5.17 g/m*3 1.7 C 3.2 km/h
1364 27-12-2014 18:55:00 0.8 C 4.81 g/m*3 0.8 C 3.2 km/h
1365 27-12-2014 19:00:00 0.8 C 4.76 g/m*3 -3.62 C 16.1 km/h
1366 27-12-2014 19:05:00 0.7 C 4.73 g/m*3 0.7 C 3.2 km/h
1367 27-12-2014 19:10:00 0.7 C 4.73 g/m*3 -3.15 C 12.9 km/h
1368 27-12-2014 19:15:00 0.7 C 4.73 g/m*3 0.7 C 4.8 km/h
1369 27-12-2014 19:20:00 0.6 C 4.65 g/m*3 -1.49 C 6.4 km/h
1370 27-12-2014 19:25:00 0.6 C 4.65 g/m*3 0.6 C 1.6 km/h
1371 27-12-2014 19:30:00 0.6 C 4.65 g/m*3 -2.06 C 8.1 km/h
1372 27-12-2014 19:35:00 0.6 C 4.65 g/m*3 -2.52 C 9.7 km/h
1373 27-12-2014 19:40:00 0.6 C 4.65 g/m*3 -1.49 C 6.4 km/h
1374 27-12-2014 19:45:00 0.6 C 4.65 g/m*3 -1.49 C 6.4 km/h
1375 27-12-2014 19:50:00 0.5 C 4.61 g/m*3 -3.39 C 12.9 km/h
Sensor: Nr:Datum:Temp:Abs-Feuchte:Windchill:Wind:
Aussen-T/F 1376 27-12-2014 19:55:00 0.5 C 4.61 g/m*3 -2.18 C 8.1 km/h
1377 27-12-2014 20:00:00 0.4 C 4.53 g/m*3 -3.16 C 11.3 km/h
1378 27-12-2014 20:05:00 0.4 C 4.53 g/m*3 -3.16 C 11.3 km/h
1379 27-12-2014 20:10:00 0.4 C 4.53 g/m*3 -1.72 C 6.4 km/h
1380 27-12-2014 20:15:00 0.4 C 4.53 g/m*3 -2.76 C 9.7 km/h
1381 27-12-2014 20:20:00 0.4 C 4.53 g/m*3 -2.76 C 9.7 km/h
1382 27-12-2014 20:25:00 0.4 C 4.48 g/m*3 -2.76 C 9.7 km/h
1383 27-12-2014 20:30:00 0.4 C 4.48 g/m*3 -2.3 C 8.1 km/h
1384 27-12-2014 20:35:00 0.3 C 4.45 g/m*3 -3.28 C 11.3 km/h
1385 27-12-2014 20:40:00 0.3 C 4.45 g/m*3 -2.42 C 8.1 km/h
1386 27-12-2014 20:45:00 0.3 C 4.45 g/m*3 -2.42 C 8.1 km/h
1387 27-12-2014 20:50:00 0.3 C 4.45 g/m*3 -1.84 C 6.4 km/h
1388 27-12-2014 20:55:00 0.3 C 4.45 g/m*3 -1.84 C 6.4 km/h
1389 27-12-2014 21:00:00 0.3 C 4.45 g/m*3 0.3 C 4.8 km/h
1390 27-12-2014 21:05:00 0.3 C 4.45 g/m*3 -1.84 C 6.4 km/h
1391 27-12-2014 21:10:00 0.3 C 4.45 g/m*3 -2.42 C 8.1 km/h
1392 27-12-2014 21:15:00 0.3 C 4.45 g/m*3 0.3 C 1.6 km/h
1393 27-12-2014 21:20:00 0.3 C 4.45 g/m*3 -2.42 C 8.1 km/h
1394 27-12-2014 21:25:00 0.3 C 4.45 g/m*3 0.3 C 4.8 km/h
1395 27-12-2014 21:30:00 0.3 C 4.4 g/m*3 -1.84 C 6.4 km/h
1396 27-12-2014 21:35:00 0.3 C 4.4 g/m*3 0.3 C 3.2 km/h
1397 27-12-2014 21:40:00 0.3 C 4.45 g/m*3 0.3 C 1.6 km/h
1398 27-12-2014 21:45:00 0.3 C 4.4 g/m*3 -2.42 C 8.1 km/h
1399 27-12-2014 21:50:00 0.3 C 4.4 g/m*3 0.3 C 4.8 km/h
1400 27-12-2014 21:55:00 0.3 C 4.4 g/m*3 -2.88 C 9.7 km/h
Sensor: Nr:Datum:Temp:Abs-Feuchte:Windchill:Wind:
Aussen-T/F 1401 27-12-2014 22:00:00 0.3 C 4.4 g/m*3 -3.28 C 11.3 km/h

Legende:
   Min
   Max


Maximal/Minimal-Werte vom 22.12.2014 - 27.12.2014

Sensor Min Max Avg
Temp
(Aussen-T/F)
0.3 °C
27-12-2014  20:35:00
10.6 °C
23-12-2014  05:00:00
6.63 °C
Abs-Feuchte
(Aussen-T/F)
4.4 g/m*3
27-12-2014  21:30:00
9.58 g/m*3
23-12-2014  11:15:00
6.76 g/m*3
Windchill
(Aussen-T/F)
-3.62 C
27-12-2014  19:00:00
10.4 C
23-12-2014  14:10:00
4.88 C

Die Daten stammen von einer Davis Vantage Pro 2 Wetter-Station und werden unter Linux mit der Software wview2wettercgi und aufbereitet. Alle Angaben erfolgen ohne Gewähr für ihre Vollständigkeit oder Richtigkeit.
Kontakt: Rainer Krienke krienke@uni-koblenz.de . Meine Webseiten an der Uni Koblenz oder privat.
Version: $Revision: 0.78 $